﻿<?xml version="1.0" encoding="utf-8"?><gpx creator="Garmin Desktop App" version="1.1" xsi:schemaLocation="http://www.topografix.com/GPX/1/1 http://www.topografix.com/GPX/1/1/gpx.xsd http://www.garmin.com/xmlschemas/WaypointExtension/v1 http://www8.garmin.com/xmlschemas/WaypointExtensionv1.xsd http://www.garmin.com/xmlschemas/TrackPointExtension/v1 http://www.garmin.com/xmlschemas/TrackPointExtensionv1.xsd http://www.garmin.com/xmlschemas/GpxExtensions/v3 http://www8.garmin.com/xmlschemas/GpxExtensionsv3.xsd http://www.garmin.com/xmlschemas/ActivityExtension/v1 http://www8.garmin.com/xmlschemas/ActivityExtensionv1.xsd http://www.garmin.com/xmlschemas/AdventuresExtensions/v1 http://www8.garmin.com/xmlschemas/AdventuresExtensionv1.xsd http://www.garmin.com/xmlschemas/PressureExtension/v1 http://www.garmin.com/xmlschemas/PressureExtensionv1.xsd http://www.garmin.com/xmlschemas/TripExtensions/v1 http://www.garmin.com/xmlschemas/TripExtensionsv1.xsd http://www.garmin.com/xmlschemas/TripMetaDataExtensions/v1 http://www.garmin.com/xmlschemas/TripMetaDataExtensionsv1.xsd http://www.garmin.com/xmlschemas/ViaPointTransportationModeExtensions/v1 http://www.garmin.com/xmlschemas/ViaPointTransportationModeExtensionsv1.xsd http://www.garmin.com/xmlschemas/CreationTimeExtension/v1 http://www.garmin.com/xmlschemas/CreationTimeExtensionsv1.xsd http://www.garmin.com/xmlschemas/AccelerationExtension/v1 http://www.garmin.com/xmlschemas/AccelerationExtensionv1.xsd http://www.garmin.com/xmlschemas/PowerExtension/v1 http://www.garmin.com/xmlschemas/PowerExtensionv1.xsd http://www.garmin.com/xmlschemas/VideoExtension/v1 http://www.garmin.com/xmlschemas/VideoExtensionv1.xsd" xmlns="http://www.topografix.com/GPX/1/1" xmlns:xsi="http://www.w3.org/2001/XMLSchema-instance" xmlns:wptx1="http://www.garmin.com/xmlschemas/WaypointExtension/v1" xmlns:gpxtrx="http://www.garmin.com/xmlschemas/GpxExtensions/v3" xmlns:gpxtpx="http://www.garmin.com/xmlschemas/TrackPointExtension/v1" xmlns:gpxx="http://www.garmin.com/xmlschemas/GpxExtensions/v3" xmlns:trp="http://www.garmin.com/xmlschemas/TripExtensions/v1" xmlns:adv="http://www.garmin.com/xmlschemas/AdventuresExtensions/v1" xmlns:prs="http://www.garmin.com/xmlschemas/PressureExtension/v1" xmlns:tmd="http://www.garmin.com/xmlschemas/TripMetaDataExtensions/v1" xmlns:vptm="http://www.garmin.com/xmlschemas/ViaPointTransportationModeExtensions/v1" xmlns:ctx="http://www.garmin.com/xmlschemas/CreationTimeExtension/v1" xmlns:gpxacc="http://www.garmin.com/xmlschemas/AccelerationExtension/v1" xmlns:gpxpx="http://www.garmin.com/xmlschemas/PowerExtension/v1" xmlns:vidx1="http://www.garmin.com/xmlschemas/VideoExtension/v1">

  <metadata>
    <link href="http://www.garmin.com">
      <text>Garmin International</text>
    </link>
    <time>2021-08-22T19:34:23Z</time>
    <bounds maxlat="50.840366212651134" maxlon="4.725937955081463" minlat="50.796228786930442" minlon="4.661425044760108" />
  </metadata>

  <trk>
    <name>ruiterschool lus 21 km</name>
    <extensions>
      <gpxx:TrackExtension>
        <gpxx:DisplayColor>Red</gpxx:DisplayColor>
      </gpxx:TrackExtension>
    </extensions>
    <trkseg>
      <trkpt lat="50.832474650815129" lon="4.661600310355425">
        <ele>68.620000000000005</ele>
        <time>2020-11-11T12:11:46Z</time>
      </trkpt>
      <trkpt lat="50.831692451611161" lon="4.662144044414163">
        <ele>70.769999999999996</ele>
        <time>2020-11-11T12:12:51Z</time>
      </trkpt>
      <trkpt lat="50.831280900165439" lon="4.662555512040854">
        <ele>72.560000000000002</ele>
        <time>2020-11-11T12:13:29Z</time>
      </trkpt>
      <trkpt lat="50.830991724506021" lon="4.662829516455531">
        <ele>74.519999999999996</ele>
        <time>2020-11-11T12:13:53Z</time>
      </trkpt>
      <trkpt lat="50.830986108630896" lon="4.662844268605113">
        <ele>75.769999999999996</ele>
        <time>2020-11-11T12:13:58Z</time>
      </trkpt>
      <trkpt lat="50.830939589068294" lon="4.662871425971389">
        <ele>72.510000000000005</ele>
        <time>2020-11-11T12:14:16Z</time>
      </trkpt>
      <trkpt lat="50.8309340570122" lon="4.662866480648518">
        <ele>75.650000000000006</ele>
        <time>2020-11-11T12:14:17Z</time>
      </trkpt>
      <trkpt lat="50.830940511077642" lon="4.662873856723309">
        <ele>75.599999999999994</ele>
        <time>2020-11-11T12:14:31Z</time>
      </trkpt>
      <trkpt lat="50.830746470019221" lon="4.663061695173383">
        <ele>75.609999999999999</ele>
        <time>2020-11-11T12:14:51Z</time>
      </trkpt>
      <trkpt lat="50.830587884411216" lon="4.663265123963356">
        <ele>75.430000000000007</ele>
        <time>2020-11-11T12:15:10Z</time>
      </trkpt>
      <trkpt lat="50.830575143918395" lon="4.663542062044144">
        <ele>76.510000000000005</ele>
        <time>2020-11-11T12:15:30Z</time>
      </trkpt>
      <trkpt lat="50.830639097839594" lon="4.663724368438125">
        <ele>76.390000000000001</ele>
        <time>2020-11-11T12:15:42Z</time>
      </trkpt>
      <trkpt lat="50.83075225353241" lon="4.664109935984016">
        <ele>76.150000000000006</ele>
        <time>2020-11-11T12:16:00Z</time>
      </trkpt>
      <trkpt lat="50.830902373418212" lon="4.664630955085158">
        <ele>74.459999999999994</ele>
        <time>2020-11-11T12:16:26Z</time>
      </trkpt>
      <trkpt lat="50.830995244905353" lon="4.664904959499836">
        <ele>76.629999999999995</ele>
        <time>2020-11-11T12:16:40Z</time>
      </trkpt>
      <trkpt lat="50.83151014521718" lon="4.666511854156852">
        <ele>76.209999999999994</ele>
        <time>2020-11-11T12:17:27Z</time>
      </trkpt>
      <trkpt lat="50.831712316721678" lon="4.666237430647016">
        <ele>76.010000000000005</ele>
        <time>2020-11-11T12:17:41Z</time>
      </trkpt>
      <trkpt lat="50.832493677735329" lon="4.668223103508353">
        <ele>65.980000000000004</ele>
        <time>2020-11-11T12:23:27Z</time>
      </trkpt>
      <trkpt lat="50.832874802872539" lon="4.670215733349323">
        <ele>68.200000000000003</ele>
        <time>2020-11-11T12:23:32Z</time>
      </trkpt>
      <trkpt lat="50.832941690459847" lon="4.670439530164003">
        <ele>68.010000000000005</ele>
        <time>2020-11-11T12:23:52Z</time>
      </trkpt>
      <trkpt lat="50.833031795918941" lon="4.670814787968993">
        <ele>67.739999999999995</ele>
        <time>2020-11-11T12:24:13Z</time>
      </trkpt>
      <trkpt lat="50.833083428442478" lon="4.671262046322227">
        <ele>67.510000000000005</ele>
        <time>2020-11-11T12:24:33Z</time>
      </trkpt>
      <trkpt lat="50.833174623548985" lon="4.671587599441409">
        <ele>67.299999999999997</ele>
        <time>2020-11-11T12:24:48Z</time>
      </trkpt>
      <trkpt lat="50.833200523629785" lon="4.671643925830722">
        <ele>67.25</ele>
        <time>2020-11-11T12:24:51Z</time>
      </trkpt>
      <trkpt lat="50.833237487822771" lon="4.671736881136894">
        <ele>67.200000000000003</ele>
        <time>2020-11-11T12:24:55Z</time>
      </trkpt>
      <trkpt lat="50.833289958536625" lon="4.672062350437045">
        <ele>67</ele>
        <time>2020-11-11T12:25:08Z</time>
      </trkpt>
      <trkpt lat="50.833298340439796" lon="4.672387233003974">
        <ele>66.780000000000001</ele>
        <time>2020-11-11T12:25:21Z</time>
      </trkpt>
      <trkpt lat="50.833399510011077" lon="4.672724353149533">
        <ele>66.489999999999995</ele>
        <time>2020-11-11T12:25:38Z</time>
      </trkpt>
      <trkpt lat="50.833405293524265" lon="4.6727813500911">
        <ele>66.439999999999998</ele>
        <time>2020-11-11T12:25:41Z</time>
      </trkpt>
      <trkpt lat="50.833445359021425" lon="4.672930715605617">
        <ele>66.319999999999993</ele>
        <time>2020-11-11T12:25:46Z</time>
      </trkpt>
      <trkpt lat="50.833499925211072" lon="4.67332717962563">
        <ele>66.150000000000006</ele>
        <time>2020-11-11T12:25:58Z</time>
      </trkpt>
      <trkpt lat="50.833567902445793" lon="4.67369413934648">
        <ele>65.980000000000004</ele>
        <time>2020-11-11T12:26:08Z</time>
      </trkpt>
      <trkpt lat="50.83357167430222" lon="4.673724230378866">
        <ele>65.959999999999994</ele>
        <time>2020-11-11T12:26:09Z</time>
      </trkpt>
      <trkpt lat="50.833725314587355" lon="4.674454964697361">
        <ele>65.370000000000005</ele>
        <time>2020-11-11T12:26:33Z</time>
      </trkpt>
      <trkpt lat="50.833740904927254" lon="4.674488995224237">
        <ele>65.349999999999994</ele>
        <time>2020-11-11T12:26:34Z</time>
      </trkpt>
      <trkpt lat="50.833756076171994" lon="4.674533754587174">
        <ele>65.319999999999993</ele>
        <time>2020-11-11T12:26:35Z</time>
      </trkpt>
      <trkpt lat="50.833767224103212" lon="4.674567617475987">
        <ele>65.299999999999997</ele>
        <time>2020-11-11T12:26:36Z</time>
      </trkpt>
      <trkpt lat="50.833781473338604" lon="4.67459955252707">
        <ele>65.280000000000001</ele>
        <time>2020-11-11T12:26:37Z</time>
      </trkpt>
      <trkpt lat="50.833856659010053" lon="4.674868527799845">
        <ele>65.120000000000005</ele>
        <time>2020-11-11T12:26:44Z</time>
      </trkpt>
      <trkpt lat="50.833868645131588" lon="4.674895936623216">
        <ele>65.090000000000003</ele>
        <time>2020-11-11T12:26:45Z</time>
      </trkpt>
      <trkpt lat="50.834019016474485" lon="4.675653576850891">
        <ele>64.650000000000006</ele>
        <time>2020-11-11T12:27:02Z</time>
      </trkpt>
      <trkpt lat="50.834023710340261" lon="4.675697917118669">
        <ele>64.620000000000005</ele>
        <time>2020-11-11T12:27:03Z</time>
      </trkpt>
      <trkpt lat="50.834028068929911" lon="4.675749717280269">
        <ele>64.590000000000003</ele>
        <time>2020-11-11T12:27:04Z</time>
      </trkpt>
      <trkpt lat="50.834035612642765" lon="4.675793051719666">
        <ele>64.569999999999993</ele>
        <time>2020-11-11T12:27:05Z</time>
      </trkpt>
      <trkpt lat="50.834051202982664" lon="4.675896819680929">
        <ele>64.510000000000005</ele>
        <time>2020-11-11T12:27:07Z</time>
      </trkpt>
      <trkpt lat="50.834063105285168" lon="4.675931688398123">
        <ele>64.480000000000004</ele>
        <time>2020-11-11T12:27:08Z</time>
      </trkpt>
      <trkpt lat="50.834070984274149" lon="4.676003605127335">
        <ele>64.450000000000003</ele>
        <time>2020-11-11T12:27:09Z</time>
      </trkpt>
      <trkpt lat="50.834078695625067" lon="4.676053896546364">
        <ele>64.420000000000002</ele>
        <time>2020-11-11T12:27:10Z</time>
      </trkpt>
      <trkpt lat="50.834080288186669" lon="4.67611231841147">
        <ele>64.390000000000001</ele>
        <time>2020-11-11T12:27:11Z</time>
      </trkpt>
      <trkpt lat="50.834076013416052" lon="4.676187839359045">
        <ele>64.359999999999999</ele>
        <time>2020-11-11T12:27:12Z</time>
      </trkpt>
      <trkpt lat="50.834083054214716" lon="4.676239304244518">
        <ele>64.329999999999998</ele>
        <time>2020-11-11T12:27:13Z</time>
      </trkpt>
      <trkpt lat="50.834137033671141" lon="4.676895020529628">
        <ele>64.049999999999997</ele>
        <time>2020-11-11T12:27:24Z</time>
      </trkpt>
      <trkpt lat="50.834195287898183" lon="4.677168941125274">
        <ele>63.799999999999997</ele>
        <time>2020-11-11T12:27:34Z</time>
      </trkpt>
      <trkpt lat="50.834543723613024" lon="4.677213784307241">
        <ele>63.390000000000001</ele>
        <time>2020-11-11T12:27:51Z</time>
      </trkpt>
      <trkpt lat="50.83476978354156" lon="4.677126361057162">
        <ele>63.189999999999998</ele>
        <time>2020-11-11T12:28:06Z</time>
      </trkpt>
      <trkpt lat="50.834951251745224" lon="4.677013037726283">
        <ele>63.07</ele>
        <time>2020-11-11T12:28:22Z</time>
      </trkpt>
      <trkpt lat="50.835072118788958" lon="4.676938690245152">
        <ele>63.039999999999999</ele>
        <time>2020-11-11T12:28:31Z</time>
      </trkpt>
      <trkpt lat="50.835090056061745" lon="4.676937181502581">
        <ele>63.039999999999999</ele>
        <time>2020-11-11T12:28:32Z</time>
      </trkpt>
      <trkpt lat="50.835312679409981" lon="4.67680617235601">
        <ele>63</ele>
        <time>2020-11-11T12:28:51Z</time>
      </trkpt>
      <trkpt lat="50.835388787090778" lon="4.676760155707598">
        <ele>60.689999999999998</ele>
        <time>2020-11-11T12:28:57Z</time>
      </trkpt>
      <trkpt lat="50.835613338276744" lon="4.676602743566036">
        <ele>59.880000000000003</ele>
        <time>2020-11-11T12:29:12Z</time>
      </trkpt>
      <trkpt lat="50.835770918056369" lon="4.676537280902267">
        <ele>59.840000000000003</ele>
        <time>2020-11-11T12:29:27Z</time>
      </trkpt>
      <trkpt lat="50.836014077067375" lon="4.676423370838165">
        <ele>58.859999999999999</ele>
        <time>2020-11-11T12:29:42Z</time>
      </trkpt>
      <trkpt lat="50.836155898869038" lon="4.676349861547351">
        <ele>58.100000000000001</ele>
        <time>2020-11-11T12:29:55Z</time>
      </trkpt>
      <trkpt lat="50.836335439234972" lon="4.676302671432495">
        <ele>57.049999999999997</ele>
        <time>2020-11-11T12:30:12Z</time>
      </trkpt>
      <trkpt lat="50.836594775319099" lon="4.676223713904619">
        <ele>54.299999999999997</ele>
        <time>2020-11-11T12:30:30Z</time>
      </trkpt>
      <trkpt lat="50.836824439466" lon="4.676080802455545">
        <ele>52.520000000000003</ele>
        <time>2020-11-11T12:30:49Z</time>
      </trkpt>
      <trkpt lat="50.836942372843623" lon="4.676081892102957">
        <ele>51.670000000000002</ele>
        <time>2020-11-11T12:30:57Z</time>
      </trkpt>
      <trkpt lat="50.836981683969498" lon="4.676078036427498">
        <ele>51.659999999999997</ele>
        <time>2020-11-11T12:30:59Z</time>
      </trkpt>
      <trkpt lat="50.83712350577116" lon="4.675966892391443">
        <ele>49.75</ele>
        <time>2020-11-11T12:31:11Z</time>
      </trkpt>
      <trkpt lat="50.837220400571823" lon="4.675939064472914">
        <ele>49.659999999999997</ele>
        <time>2020-11-11T12:31:19Z</time>
      </trkpt>
      <trkpt lat="50.837226267904043" lon="4.675951218232513">
        <ele>49.640000000000001</ele>
        <time>2020-11-11T12:31:21Z</time>
      </trkpt>
      <trkpt lat="50.837284354493022" lon="4.676179038360715">
        <ele>49.490000000000002</ele>
        <time>2020-11-11T12:31:36Z</time>
      </trkpt>
      <trkpt lat="50.837347889319062" lon="4.676581537351012">
        <ele>49.210000000000001</ele>
        <time>2020-11-11T12:31:53Z</time>
      </trkpt>
      <trkpt lat="50.837446544319391" lon="4.676973056048155">
        <ele>48.899999999999999</ele>
        <time>2020-11-11T12:32:11Z</time>
      </trkpt>
      <trkpt lat="50.837483424693346" lon="4.677075985819101">
        <ele>48.829999999999998</ele>
        <time>2020-11-11T12:32:15Z</time>
      </trkpt>
      <trkpt lat="50.837566321715713" lon="4.677436742931604">
        <ele>48.579999999999998</ele>
        <time>2020-11-11T12:32:27Z</time>
      </trkpt>
      <trkpt lat="50.837587108835578" lon="4.677491979673505">
        <ele>48.560000000000002</ele>
        <time>2020-11-11T12:32:28Z</time>
      </trkpt>
      <trkpt lat="50.837597083300352" lon="4.67753523029387">
        <ele>48.539999999999999</ele>
        <time>2020-11-11T12:32:29Z</time>
      </trkpt>
      <trkpt lat="50.83761066198349" lon="4.677569512277842">
        <ele>48.520000000000003</ele>
        <time>2020-11-11T12:32:30Z</time>
      </trkpt>
      <trkpt lat="50.837629772722721" lon="4.677608739584684">
        <ele>48.5</ele>
        <time>2020-11-11T12:32:31Z</time>
      </trkpt>
      <trkpt lat="50.837699342519045" lon="4.678144510835409">
        <ele>48.229999999999997</ele>
        <time>2020-11-11T12:32:43Z</time>
      </trkpt>
      <trkpt lat="50.837797494605184" lon="4.678594116121531">
        <ele>47.899999999999999</ele>
        <time>2020-11-11T12:32:55Z</time>
      </trkpt>
      <trkpt lat="50.837820628657937" lon="4.678629403933883">
        <ele>47.880000000000003</ele>
        <time>2020-11-11T12:32:56Z</time>
      </trkpt>
      <trkpt lat="50.837843343615532" lon="4.678670559078455">
        <ele>47.859999999999999</ele>
        <time>2020-11-11T12:32:57Z</time>
      </trkpt>
      <trkpt lat="50.838111564517021" lon="4.679719051346183">
        <ele>50.490000000000002</ele>
        <time>2020-11-11T12:33:17Z</time>
      </trkpt>
      <trkpt lat="50.838110307231545" lon="4.67977705411613">
        <ele>51.299999999999997</ele>
        <time>2020-11-11T12:33:18Z</time>
      </trkpt>
      <trkpt lat="50.838108882308006" lon="4.679870679974556">
        <ele>51.259999999999998</ele>
        <time>2020-11-11T12:33:19Z</time>
      </trkpt>
      <trkpt lat="50.838195718824863" lon="4.680676516145468">
        <ele>50.890000000000001</ele>
        <time>2020-11-11T12:33:30Z</time>
      </trkpt>
      <trkpt lat="50.838377354666591" lon="4.681139867752791">
        <ele>51.509999999999998</ele>
        <time>2020-11-11T12:33:39Z</time>
      </trkpt>
      <trkpt lat="50.838454887270927" lon="4.681588131934404">
        <ele>51.93</ele>
        <time>2020-11-11T12:33:47Z</time>
      </trkpt>
      <trkpt lat="50.8384476788342" lon="4.681662730872631">
        <ele>51.880000000000003</ele>
        <time>2020-11-11T12:33:48Z</time>
      </trkpt>
      <trkpt lat="50.838705087080598" lon="4.683284293860197">
        <ele>50.479999999999997</ele>
        <time>2020-11-11T12:34:35Z</time>
      </trkpt>
      <trkpt lat="50.838723443448544" lon="4.683391582220793">
        <ele>50.149999999999999</ele>
        <time>2020-11-11T12:34:51Z</time>
      </trkpt>
      <trkpt lat="50.838868115097284" lon="4.683749070391059">
        <ele>49.789999999999999</ele>
        <time>2020-11-11T12:35:10Z</time>
      </trkpt>
      <trkpt lat="50.839004656299949" lon="4.684248631820083">
        <ele>49.619999999999997</ele>
        <time>2020-11-11T12:35:19Z</time>
      </trkpt>
      <trkpt lat="50.839124349877238" lon="4.684748277068138">
        <ele>50.869999999999997</ele>
        <time>2020-11-11T12:35:27Z</time>
      </trkpt>
      <trkpt lat="50.839265920221806" lon="4.685248509049416">
        <ele>52.789999999999999</ele>
        <time>2020-11-11T12:35:36Z</time>
      </trkpt>
      <trkpt lat="50.839357450604439" lon="4.686057865619659">
        <ele>53.920000000000002</ele>
        <time>2020-11-11T12:35:55Z</time>
      </trkpt>
      <trkpt lat="50.839506732299924" lon="4.686627918854356">
        <ele>53.420000000000002</ele>
        <time>2020-11-11T12:36:12Z</time>
      </trkpt>
      <trkpt lat="50.839564902707934" lon="4.687145920470357">
        <ele>52.93</ele>
        <time>2020-11-11T12:36:30Z</time>
      </trkpt>
      <trkpt lat="50.839636735618114" lon="4.687566105276346">
        <ele>52.469999999999999</ele>
        <time>2020-11-11T12:36:49Z</time>
      </trkpt>
      <trkpt lat="50.839754166081548" lon="4.688036916777492">
        <ele>51.960000000000001</ele>
        <time>2020-11-11T12:37:10Z</time>
      </trkpt>
      <trkpt lat="50.839793644845486" lon="4.68828602693975">
        <ele>49.340000000000003</ele>
        <time>2020-11-11T12:37:22Z</time>
      </trkpt>
      <trkpt lat="50.839832704514265" lon="4.68867008574307">
        <ele>48.909999999999997</ele>
        <time>2020-11-11T12:37:43Z</time>
      </trkpt>
      <trkpt lat="50.839879056438804" lon="4.68912941403687">
        <ele>47.670000000000002</ele>
        <time>2020-11-11T12:38:04Z</time>
      </trkpt>
      <trkpt lat="50.839985506609082" lon="4.689625706523657">
        <ele>46.560000000000002</ele>
        <time>2020-11-11T12:38:25Z</time>
      </trkpt>
      <trkpt lat="50.839984752237797" lon="4.689667280763388">
        <ele>46.549999999999997</ele>
        <time>2020-11-11T12:38:26Z</time>
      </trkpt>
      <trkpt lat="50.839988775551319" lon="4.689692594110966">
        <ele>46.530000000000001</ele>
        <time>2020-11-11T12:38:27Z</time>
      </trkpt>
      <trkpt lat="50.840097237378359" lon="4.690013621002436">
        <ele>45.630000000000003</ele>
        <time>2020-11-11T12:38:35Z</time>
      </trkpt>
      <trkpt lat="50.840131351724267" lon="4.690070115029812">
        <ele>45.630000000000003</ele>
        <time>2020-11-11T12:38:36Z</time>
      </trkpt>
      <trkpt lat="50.840148953720927" lon="4.690106743946672">
        <ele>44.850000000000001</ele>
        <time>2020-11-11T12:38:37Z</time>
      </trkpt>
      <trkpt lat="50.840154821053147" lon="4.690162818878889">
        <ele>44.829999999999998</ele>
        <time>2020-11-11T12:38:38Z</time>
      </trkpt>
      <trkpt lat="50.840173680335283" lon="4.690216463059187">
        <ele>44.799999999999997</ele>
        <time>2020-11-11T12:38:39Z</time>
      </trkpt>
      <trkpt lat="50.840155826881528" lon="4.690293073654175">
        <ele>44.799999999999997</ele>
        <time>2020-11-11T12:38:40Z</time>
      </trkpt>
      <trkpt lat="50.84016865119338" lon="4.690343532711268">
        <ele>44.780000000000001</ele>
        <time>2020-11-11T12:38:41Z</time>
      </trkpt>
      <trkpt lat="50.840169740840793" lon="4.690416203811765">
        <ele>44.770000000000003</ele>
        <time>2020-11-11T12:38:42Z</time>
      </trkpt>
      <trkpt lat="50.84021751768887" lon="4.690834963694215">
        <ele>43.880000000000003</ele>
        <time>2020-11-11T12:38:51Z</time>
      </trkpt>
      <trkpt lat="50.840227073058486" lon="4.690867653116584">
        <ele>43.859999999999999</ele>
        <time>2020-11-11T12:38:52Z</time>
      </trkpt>
      <trkpt lat="50.840254565700889" lon="4.690948957577348">
        <ele>43.82</ele>
        <time>2020-11-11T12:38:53Z</time>
      </trkpt>
      <trkpt lat="50.840278286486864" lon="4.691006625071168">
        <ele>43.82</ele>
        <time>2020-11-11T12:38:54Z</time>
      </trkpt>
      <trkpt lat="50.840297313407063" lon="4.691077703610063">
        <ele>43.799999999999997</ele>
        <time>2020-11-11T12:38:55Z</time>
      </trkpt>
      <trkpt lat="50.840344922617078" lon="4.691196391358972">
        <ele>43.759999999999998</ele>
        <time>2020-11-11T12:38:58Z</time>
      </trkpt>
      <trkpt lat="50.840366212651134" lon="4.691242072731257">
        <ele>42.909999999999997</ele>
        <time>2020-11-11T12:38:59Z</time>
      </trkpt>
      <trkpt lat="50.840343916788697" lon="4.691522028297186">
        <ele>42.759999999999998</ele>
        <time>2020-11-11T12:39:10Z</time>
      </trkpt>
      <trkpt lat="50.840296726673841" lon="4.691751608625054">
        <ele>42.649999999999999</ele>
        <time>2020-11-11T12:39:17Z</time>
      </trkpt>
      <trkpt lat="50.840258924290538" lon="4.691811455413699">
        <ele>42.609999999999999</ele>
        <time>2020-11-11T12:39:20Z</time>
      </trkpt>
      <trkpt lat="50.840250207111239" lon="4.691820507869124">
        <ele>42.600000000000001</ele>
        <time>2020-11-11T12:39:21Z</time>
      </trkpt>
      <trkpt lat="50.840195892378688" lon="4.691881192848086">
        <ele>39.340000000000003</ele>
        <time>2020-11-11T12:39:28Z</time>
      </trkpt>
      <trkpt lat="50.840069577097893" lon="4.692112365737557">
        <ele>41.890000000000001</ele>
        <time>2020-11-11T12:39:44Z</time>
      </trkpt>
      <trkpt lat="50.83987008780241" lon="4.692343706265092">
        <ele>41.68</ele>
        <time>2020-11-11T12:39:59Z</time>
      </trkpt>
      <trkpt lat="50.839659366756678" lon="4.692437248304486">
        <ele>41.469999999999999</ele>
        <time>2020-11-11T12:40:17Z</time>
      </trkpt>
      <trkpt lat="50.83943473175168" lon="4.692545039579272">
        <ele>41.270000000000003</ele>
        <time>2020-11-11T12:40:32Z</time>
      </trkpt>
      <trkpt lat="50.839273799210787" lon="4.692676048725843">
        <ele>41.109999999999999</ele>
        <time>2020-11-11T12:40:43Z</time>
      </trkpt>
      <trkpt lat="50.838695531710982" lon="4.692962458357215">
        <ele>40.710000000000001</ele>
        <time>2020-11-11T12:41:14Z</time>
      </trkpt>
      <trkpt lat="50.838671727105975" lon="4.692976288497448">
        <ele>40.700000000000003</ele>
        <time>2020-11-11T12:41:15Z</time>
      </trkpt>
      <trkpt lat="50.838641971349716" lon="4.692969918251038">
        <ele>40.689999999999998</ele>
        <time>2020-11-11T12:41:16Z</time>
      </trkpt>
      <trkpt lat="50.838604336604476" lon="4.692965811118484">
        <ele>40.670000000000002</ele>
        <time>2020-11-11T12:41:17Z</time>
      </trkpt>
      <trkpt lat="50.838566869497299" lon="4.692971091717482">
        <ele>41.780000000000001</ele>
        <time>2020-11-11T12:41:18Z</time>
      </trkpt>
      <trkpt lat="50.838538035750389" lon="4.692985257133842">
        <ele>41.770000000000003</ele>
        <time>2020-11-11T12:41:19Z</time>
      </trkpt>
      <trkpt lat="50.838501406833529" lon="4.692995315417647">
        <ele>41.75</ele>
        <time>2020-11-11T12:41:20Z</time>
      </trkpt>
      <trkpt lat="50.838465532287955" lon="4.693004451692104">
        <ele>41.740000000000002</ele>
        <time>2020-11-11T12:41:21Z</time>
      </trkpt>
      <trkpt lat="50.838418090716004" lon="4.693013001233339">
        <ele>41.719999999999999</ele>
        <time>2020-11-11T12:41:22Z</time>
      </trkpt>
      <trkpt lat="50.838383641093969" lon="4.693022137507796">
        <ele>41.719999999999999</ele>
        <time>2020-11-11T12:41:23Z</time>
      </trkpt>
      <trkpt lat="50.838051130995154" lon="4.69317770563066">
        <ele>43.950000000000003</ele>
        <time>2020-11-11T12:41:32Z</time>
      </trkpt>
      <trkpt lat="50.837889527902007" lon="4.693186255171895">
        <ele>44.799999999999997</ele>
        <time>2020-11-11T12:41:37Z</time>
      </trkpt>
      <trkpt lat="50.837873686105013" lon="4.693182986229658">
        <ele>44.789999999999999</ele>
        <time>2020-11-11T12:41:38Z</time>
      </trkpt>
      <trkpt lat="50.837847450748086" lon="4.693192457780242">
        <ele>45.530000000000001</ele>
        <time>2020-11-11T12:41:39Z</time>
      </trkpt>
      <trkpt lat="50.837809648364782" lon="4.693235792219639">
        <ele>45.530000000000001</ele>
        <time>2020-11-11T12:41:40Z</time>
      </trkpt>
      <trkpt lat="50.83777335472405" lon="4.693279881030321">
        <ele>45.520000000000003</ele>
        <time>2020-11-11T12:41:41Z</time>
      </trkpt>
      <trkpt lat="50.837393486872315" lon="4.693490602076054">
        <ele>46.409999999999997</ele>
        <time>2020-11-11T12:41:51Z</time>
      </trkpt>
      <trkpt lat="50.83722417242825" lon="4.693595543503761">
        <ele>47.189999999999998</ele>
        <time>2020-11-11T12:41:55Z</time>
      </trkpt>
      <trkpt lat="50.837173126637936" lon="4.693626556545496">
        <ele>47.170000000000002</ele>
        <time>2020-11-11T12:41:56Z</time>
      </trkpt>
      <trkpt lat="50.837123589590192" lon="4.693646254017949">
        <ele>47.149999999999999</ele>
        <time>2020-11-11T12:41:57Z</time>
      </trkpt>
      <trkpt lat="50.837081931531429" lon="4.693663688376546">
        <ele>47.140000000000001</ele>
        <time>2020-11-11T12:41:58Z</time>
      </trkpt>
      <trkpt lat="50.837030885741115" lon="4.693684810772538">
        <ele>47.109999999999999</ele>
        <time>2020-11-11T12:41:59Z</time>
      </trkpt>
      <trkpt lat="50.836987132206559" lon="4.693706771358848">
        <ele>47.960000000000001</ele>
        <time>2020-11-11T12:42:00Z</time>
      </trkpt>
      <trkpt lat="50.836944887414575" lon="4.693726217374206">
        <ele>47.950000000000003</ele>
        <time>2020-11-11T12:42:01Z</time>
      </trkpt>
      <trkpt lat="50.836475417017937" lon="4.694074988365173">
        <ele>47.729999999999997</ele>
        <time>2020-11-11T12:42:12Z</time>
      </trkpt>
      <trkpt lat="50.836054729297757" lon="4.694268442690373">
        <ele>47.530000000000001</ele>
        <time>2020-11-11T12:42:23Z</time>
      </trkpt>
      <trkpt lat="50.835997061803937" lon="4.694272382184863">
        <ele>45.130000000000003</ele>
        <time>2020-11-11T12:42:25Z</time>
      </trkpt>
      <trkpt lat="50.835834117606282" lon="4.694274561479688">
        <ele>44.210000000000001</ele>
        <time>2020-11-11T12:42:31Z</time>
      </trkpt>
      <trkpt lat="50.835809726268053" lon="4.694266095757484">
        <ele>44.200000000000003</ele>
        <time>2020-11-11T12:42:32Z</time>
      </trkpt>
      <trkpt lat="50.835664048790932" lon="4.69427858479321">
        <ele>43.299999999999997</ele>
        <time>2020-11-11T12:42:38Z</time>
      </trkpt>
      <trkpt lat="50.835639154538512" lon="4.69428051263094">
        <ele>43.270000000000003</ele>
        <time>2020-11-11T12:42:39Z</time>
      </trkpt>
      <trkpt lat="50.835324497893453" lon="4.694327367469668">
        <ele>42.299999999999997</ele>
        <time>2020-11-11T12:42:50Z</time>
      </trkpt>
      <trkpt lat="50.835057534277439" lon="4.694285206496716">
        <ele>41.399999999999999</ele>
        <time>2020-11-11T12:42:59Z</time>
      </trkpt>
      <trkpt lat="50.835026605054736" lon="4.694285206496716">
        <ele>41.390000000000001</ele>
        <time>2020-11-11T12:43:00Z</time>
      </trkpt>
      <trkpt lat="50.83461832255125" lon="4.694295851513743">
        <ele>40.450000000000003</ele>
        <time>2020-11-11T12:43:12Z</time>
      </trkpt>
      <trkpt lat="50.834151702001691" lon="4.694429961964488">
        <ele>40.289999999999999</ele>
        <time>2020-11-11T12:43:24Z</time>
      </trkpt>
      <trkpt lat="50.83371483720839" lon="4.69445250928402">
        <ele>39.170000000000002</ele>
        <time>2020-11-11T12:43:37Z</time>
      </trkpt>
      <trkpt lat="50.833603860810399" lon="4.694443540647626">
        <ele>39.100000000000001</ele>
        <time>2020-11-11T12:43:42Z</time>
      </trkpt>
      <trkpt lat="50.833586510270834" lon="4.694434069097042">
        <ele>39.079999999999998</ele>
        <time>2020-11-11T12:43:43Z</time>
      </trkpt>
      <trkpt lat="50.833566896617413" lon="4.694428201764822">
        <ele>39.060000000000002</ele>
        <time>2020-11-11T12:43:44Z</time>
      </trkpt>
      <trkpt lat="50.833372268825769" lon="4.694346226751804">
        <ele>38.909999999999997</ele>
        <time>2020-11-11T12:43:54Z</time>
      </trkpt>
      <trkpt lat="50.8331289421767" lon="4.694323595613241">
        <ele>38.759999999999998</ele>
        <time>2020-11-11T12:44:06Z</time>
      </trkpt>
      <trkpt lat="50.832830462604761" lon="4.694364750757814">
        <ele>38.579999999999998</ele>
        <time>2020-11-11T12:44:27Z</time>
      </trkpt>
      <trkpt lat="50.832590907812119" lon="4.694376569241285">
        <ele>38.490000000000002</ele>
        <time>2020-11-11T12:44:46Z</time>
      </trkpt>
      <trkpt lat="50.832514632493258" lon="4.694391405209899">
        <ele>38.479999999999997</ele>
        <time>2020-11-11T12:44:53Z</time>
      </trkpt>
      <trkpt lat="50.832249261438847" lon="4.694302724674344">
        <ele>38.490000000000002</ele>
        <time>2020-11-11T12:45:12Z</time>
      </trkpt>
      <trkpt lat="50.832097381353378" lon="4.694310436025262">
        <ele>38.490000000000002</ele>
        <time>2020-11-11T12:45:23Z</time>
      </trkpt>
      <trkpt lat="50.831968300044537" lon="4.694305742159486">
        <ele>38.520000000000003</ele>
        <time>2020-11-11T12:45:33Z</time>
      </trkpt>
      <trkpt lat="50.831635957583785" lon="4.694370282813907">
        <ele>38.57</ele>
        <time>2020-11-11T12:45:55Z</time>
      </trkpt>
      <trkpt lat="50.831455243751407" lon="4.694451587274671">
        <ele>38.600000000000001</ele>
        <time>2020-11-11T12:46:06Z</time>
      </trkpt>
      <trkpt lat="50.831329934298992" lon="4.694485869258642">
        <ele>36.560000000000002</ele>
        <time>2020-11-11T12:46:12Z</time>
      </trkpt>
      <trkpt lat="50.831172941252589" lon="4.694499364122748">
        <ele>36.560000000000002</ele>
        <time>2020-11-11T12:46:22Z</time>
      </trkpt>
      <trkpt lat="50.831050062552094" lon="4.694471955299377">
        <ele>36.579999999999998</ele>
        <time>2020-11-11T12:46:35Z</time>
      </trkpt>
      <trkpt lat="50.831012679263949" lon="4.694483354687691">
        <ele>36.579999999999998</ele>
        <time>2020-11-11T12:46:39Z</time>
      </trkpt>
      <trkpt lat="50.830977223813534" lon="4.694472793489695">
        <ele>35.829999999999998</ele>
        <time>2020-11-11T12:46:45Z</time>
      </trkpt>
      <trkpt lat="50.830782009288669" lon="4.694502046331763">
        <ele>34.850000000000001</ele>
        <time>2020-11-11T12:46:59Z</time>
      </trkpt>
      <trkpt lat="50.830690898001194" lon="4.694522330537438">
        <ele>33.920000000000002</ele>
        <time>2020-11-11T12:47:05Z</time>
      </trkpt>
      <trkpt lat="50.830672457814217" lon="4.694523587822914">
        <ele>33.93</ele>
        <time>2020-11-11T12:47:06Z</time>
      </trkpt>
      <trkpt lat="50.830438435077667" lon="4.694556193426251">
        <ele>32.289999999999999</ele>
        <time>2020-11-11T12:47:22Z</time>
      </trkpt>
      <trkpt lat="50.830128220841289" lon="4.694629115983844">
        <ele>31.469999999999999</ele>
        <time>2020-11-11T12:47:44Z</time>
      </trkpt>
      <trkpt lat="50.829845247790217" lon="4.694630540907383">
        <ele>30.66</ele>
        <time>2020-11-11T12:48:04Z</time>
      </trkpt>
      <trkpt lat="50.829587168991566" lon="4.694687034934759">
        <ele>30.66</ele>
        <time>2020-11-11T12:48:21Z</time>
      </trkpt>
      <trkpt lat="50.829573255032301" lon="4.694686280563474">
        <ele>30.66</ele>
        <time>2020-11-11T12:48:22Z</time>
      </trkpt>
      <trkpt lat="50.829353649169207" lon="4.694718131795526">
        <ele>30.629999999999999</ele>
        <time>2020-11-11T12:48:32Z</time>
      </trkpt>
      <trkpt lat="50.829175617545843" lon="4.694744367152453">
        <ele>30.609999999999999</ele>
        <time>2020-11-11T12:48:45Z</time>
      </trkpt>
      <trkpt lat="50.828977720811963" lon="4.694792227819562">
        <ele>30.59</ele>
        <time>2020-11-11T12:48:57Z</time>
      </trkpt>
      <trkpt lat="50.828697932884097" lon="4.694794742390513">
        <ele>30.550000000000001</ele>
        <time>2020-11-11T12:49:14Z</time>
      </trkpt>
      <trkpt lat="50.828571114689112" lon="4.69479407183826">
        <ele>30.550000000000001</ele>
        <time>2020-11-11T12:49:20Z</time>
      </trkpt>
      <trkpt lat="50.82855929620564" lon="4.694787617772818">
        <ele>30.550000000000001</ele>
        <time>2020-11-11T12:49:21Z</time>
      </trkpt>
      <trkpt lat="50.82847916521132" lon="4.694758029654622">
        <ele>30.539999999999999</ele>
        <time>2020-11-11T12:49:27Z</time>
      </trkpt>
      <trkpt lat="50.828457791358232" lon="4.694750318303704">
        <ele>30.539999999999999</ele>
        <time>2020-11-11T12:49:29Z</time>
      </trkpt>
      <trkpt lat="50.828397441655397" lon="4.694721065461636">
        <ele>30.609999999999999</ele>
        <time>2020-11-11T12:49:33Z</time>
      </trkpt>
      <trkpt lat="50.828264001756907" lon="4.694727519527078">
        <ele>32.969999999999999</ele>
        <time>2020-11-11T12:49:44Z</time>
      </trkpt>
      <trkpt lat="50.828234748914838" lon="4.694735566154122">
        <ele>32.960000000000001</ele>
        <time>2020-11-11T12:49:46Z</time>
      </trkpt>
      <trkpt lat="50.827951272949576" lon="4.694770183414221">
        <ele>33.700000000000003</ele>
        <time>2020-11-11T12:50:07Z</time>
      </trkpt>
      <trkpt lat="50.827587749809027" lon="4.694866994395852">
        <ele>33.590000000000003</ele>
        <time>2020-11-11T12:50:22Z</time>
      </trkpt>
      <trkpt lat="50.827208301052451" lon="4.694924578070641">
        <ele>34.390000000000001</ele>
        <time>2020-11-11T12:50:34Z</time>
      </trkpt>
      <trkpt lat="50.826845448464155" lon="4.694940419867635">
        <ele>35.159999999999997</ele>
        <time>2020-11-11T12:50:46Z</time>
      </trkpt>
      <trkpt lat="50.826456779614091" lon="4.695026585832238">
        <ele>35.82</ele>
        <time>2020-11-11T12:50:59Z</time>
      </trkpt>
      <trkpt lat="50.826068529859185" lon="4.695082241669297">
        <ele>36.780000000000001</ele>
        <time>2020-11-11T12:51:11Z</time>
      </trkpt>
      <trkpt lat="50.82572084851563" lon="4.695089869201183">
        <ele>37.479999999999997</ele>
        <time>2020-11-11T12:51:21Z</time>
      </trkpt>
      <trkpt lat="50.825472408905625" lon="4.695082744583488">
        <ele>38.229999999999997</ele>
        <time>2020-11-11T12:51:29Z</time>
      </trkpt>
      <trkpt lat="50.825450280681252" lon="4.695073608309031">
        <ele>38.310000000000002</ele>
        <time>2020-11-11T12:51:30Z</time>
      </trkpt>
      <trkpt lat="50.82542672753334" lon="4.695066818967462">
        <ele>39.380000000000003</ele>
        <time>2020-11-11T12:51:31Z</time>
      </trkpt>
      <trkpt lat="50.825403174385428" lon="4.695072686299682">
        <ele>39.369999999999997</ele>
        <time>2020-11-11T12:51:32Z</time>
      </trkpt>
      <trkpt lat="50.825377944856882" lon="4.695085594430566">
        <ele>39.380000000000003</ele>
        <time>2020-11-11T12:51:33Z</time>
      </trkpt>
      <trkpt lat="50.825354056432843" lon="4.695096323266625">
        <ele>39.390000000000001</ele>
        <time>2020-11-11T12:51:34Z</time>
      </trkpt>
      <trkpt lat="50.825332682579756" lon="4.695101771503687">
        <ele>39.369999999999997</ele>
        <time>2020-11-11T12:51:35Z</time>
      </trkpt>
      <trkpt lat="50.825313404202461" lon="4.695111913606525">
        <ele>39.229999999999997</ele>
        <time>2020-11-11T12:51:36Z</time>
      </trkpt>
      <trkpt lat="50.825290270149708" lon="4.695118200033903">
        <ele>39.369999999999997</ele>
        <time>2020-11-11T12:51:37Z</time>
      </trkpt>
      <trkpt lat="50.825268058106303" lon="4.695123312994838">
        <ele>39.359999999999999</ele>
        <time>2020-11-11T12:51:38Z</time>
      </trkpt>
      <trkpt lat="50.825241068378091" lon="4.695131359621882">
        <ele>39.340000000000003</ele>
        <time>2020-11-11T12:51:39Z</time>
      </trkpt>
      <trkpt lat="50.825209971517324" lon="4.695137310773134">
        <ele>39.350000000000001</ele>
        <time>2020-11-11T12:51:40Z</time>
      </trkpt>
      <trkpt lat="50.825178204104304" lon="4.695144016295672">
        <ele>39.32</ele>
        <time>2020-11-11T12:51:41Z</time>
      </trkpt>
      <trkpt lat="50.825152136385441" lon="4.695151560008526">
        <ele>39.310000000000002</ele>
        <time>2020-11-11T12:51:42Z</time>
      </trkpt>
      <trkpt lat="50.824799509719014" lon="4.695163462311029">
        <ele>40.700000000000003</ele>
        <time>2020-11-11T12:51:53Z</time>
      </trkpt>
      <trkpt lat="50.824338085949421" lon="4.695171425119042">
        <ele>41.350000000000001</ele>
        <time>2020-11-11T12:52:06Z</time>
      </trkpt>
      <trkpt lat="50.823874566704035" lon="4.695167234167457">
        <ele>42.039999999999999</ele>
        <time>2020-11-11T12:52:18Z</time>
      </trkpt>
      <trkpt lat="50.823668874800205" lon="4.695188608020544">
        <ele>42.740000000000002</ele>
        <time>2020-11-11T12:52:23Z</time>
      </trkpt>
      <trkpt lat="50.823623863980174" lon="4.695194307714701">
        <ele>42.710000000000001</ele>
        <time>2020-11-11T12:52:24Z</time>
      </trkpt>
      <trkpt lat="50.823533171787858" lon="4.695205288007855">
        <ele>42.700000000000003</ele>
        <time>2020-11-11T12:52:26Z</time>
      </trkpt>
      <trkpt lat="50.823488077148795" lon="4.695197911933065">
        <ele>42.579999999999998</ele>
        <time>2020-11-11T12:52:27Z</time>
      </trkpt>
      <trkpt lat="50.82344826310873" lon="4.695201516151428">
        <ele>42.689999999999998</ele>
        <time>2020-11-11T12:52:28Z</time>
      </trkpt>
      <trkpt lat="50.82332806661725" lon="4.695223560556769">
        <ele>43.5</ele>
        <time>2020-11-11T12:52:31Z</time>
      </trkpt>
      <trkpt lat="50.823020534589887" lon="4.69528122805059">
        <ele>44.310000000000002</ele>
        <time>2020-11-11T12:52:40Z</time>
      </trkpt>
      <trkpt lat="50.822642426937819" lon="4.695308301597834">
        <ele>44.149999999999999</ele>
        <time>2020-11-11T12:52:53Z</time>
      </trkpt>
      <trkpt lat="50.822229031473398" lon="4.6953393984586">
        <ele>43.979999999999997</ele>
        <time>2020-11-11T12:53:07Z</time>
      </trkpt>
      <trkpt lat="50.821886043995619" lon="4.695391366258264">
        <ele>43.990000000000002</ele>
        <time>2020-11-11T12:53:19Z</time>
      </trkpt>
      <trkpt lat="50.821343064308167" lon="4.695521956309676">
        <ele>48.340000000000003</ele>
        <time>2020-11-11T12:53:53Z</time>
      </trkpt>
      <trkpt lat="50.821101665496826" lon="4.695510976016522">
        <ele>49.719999999999999</ele>
        <time>2020-11-11T12:54:09Z</time>
      </trkpt>
      <trkpt lat="50.82092447206378" lon="4.695440232753754">
        <ele>51.409999999999997</ele>
        <time>2020-11-11T12:54:21Z</time>
      </trkpt>
      <trkpt lat="50.820696484297514" lon="4.695555735379458">
        <ele>52.299999999999997</ele>
        <time>2020-11-11T12:54:41Z</time>
      </trkpt>
      <trkpt lat="50.820111008360982" lon="4.695611642673612">
        <ele>52.979999999999997</ele>
        <time>2020-11-11T12:55:34Z</time>
      </trkpt>
      <trkpt lat="50.819959295913577" lon="4.695622455328703">
        <ele>50.539999999999999</ele>
        <time>2020-11-11T12:55:47Z</time>
      </trkpt>
      <trkpt lat="50.819710856303573" lon="4.695681547746062">
        <ele>48.82</ele>
        <time>2020-11-11T12:56:09Z</time>
      </trkpt>
      <trkpt lat="50.819406341761351" lon="4.695710381492972">
        <ele>48.920000000000002</ele>
        <time>2020-11-11T12:56:30Z</time>
      </trkpt>
      <trkpt lat="50.818813070654869" lon="4.695736281573772">
        <ele>48.240000000000002</ele>
        <time>2020-11-11T12:57:11Z</time>
      </trkpt>
      <trkpt lat="50.818537389859557" lon="4.695716835558415">
        <ele>48.310000000000002</ele>
        <time>2020-11-11T12:57:29Z</time>
      </trkpt>
      <trkpt lat="50.818343097344041" lon="4.695744747295976">
        <ele>48.380000000000003</ele>
        <time>2020-11-11T12:57:44Z</time>
      </trkpt>
      <trkpt lat="50.818060794845223" lon="4.695802666246891">
        <ele>48.5</ele>
        <time>2020-11-11T12:58:04Z</time>
      </trkpt>
      <trkpt lat="50.81800245679915" lon="4.696159902960062">
        <ele>48.539999999999999</ele>
        <time>2020-11-11T12:58:22Z</time>
      </trkpt>
      <trkpt lat="50.818058364093304" lon="4.696452682837844">
        <ele>51.520000000000003</ele>
        <time>2020-11-11T12:58:37Z</time>
      </trkpt>
      <trkpt lat="50.81810119561851" lon="4.696767339482904">
        <ele>51.57</ele>
        <time>2020-11-11T12:58:55Z</time>
      </trkpt>
      <trkpt lat="50.818375367671251" lon="4.698090758174658">
        <ele>51.719999999999999</ele>
        <time>2020-11-11T12:59:53Z</time>
      </trkpt>
      <trkpt lat="50.818810723721981" lon="4.699353910982609">
        <ele>55.799999999999997</ele>
        <time>2020-11-11T13:00:55Z</time>
      </trkpt>
      <trkpt lat="50.818940559402108" lon="4.69960461370647">
        <ele>55.719999999999999</ele>
        <time>2020-11-11T13:01:11Z</time>
      </trkpt>
      <trkpt lat="50.818953048437834" lon="4.699629759415984">
        <ele>55.710000000000001</ele>
        <time>2020-11-11T13:01:12Z</time>
      </trkpt>
      <trkpt lat="50.81904474645853" lon="4.699929328635335">
        <ele>55.659999999999997</ele>
        <time>2020-11-11T13:01:30Z</time>
      </trkpt>
      <trkpt lat="50.819179778918624" lon="4.700220096856356">
        <ele>55.670000000000002</ele>
        <time>2020-11-11T13:01:47Z</time>
      </trkpt>
      <trkpt lat="50.819237949326634" lon="4.700385052710772">
        <ele>55.649999999999999</ele>
        <time>2020-11-11T13:01:54Z</time>
      </trkpt>
      <trkpt lat="50.819830466061831" lon="4.702659230679274">
        <ele>49.140000000000001</ele>
        <time>2020-11-11T13:03:56Z</time>
      </trkpt>
      <trkpt lat="50.819701049476862" lon="4.702965756878257">
        <ele>49.039999999999999</ele>
        <time>2020-11-11T13:04:15Z</time>
      </trkpt>
      <trkpt lat="50.819583116099238" lon="4.703115876764059">
        <ele>48.979999999999997</ele>
        <time>2020-11-11T13:04:26Z</time>
      </trkpt>
      <trkpt lat="50.819571046158671" lon="4.703130964189768">
        <ele>48.979999999999997</ele>
        <time>2020-11-11T13:04:27Z</time>
      </trkpt>
      <trkpt lat="50.819388404488564" lon="4.703226434066892">
        <ele>48.869999999999997</ele>
        <time>2020-11-11T13:04:39Z</time>
      </trkpt>
      <trkpt lat="50.819182461127639" lon="4.703293489292264">
        <ele>48.789999999999999</ele>
        <time>2020-11-11T13:04:54Z</time>
      </trkpt>
      <trkpt lat="50.819078860804439" lon="4.703305810689926">
        <ele>48.719999999999999</ele>
        <time>2020-11-11T13:05:05Z</time>
      </trkpt>
      <trkpt lat="50.819039801135659" lon="4.703324250876904">
        <ele>48.670000000000002</ele>
        <time>2020-11-11T13:05:08Z</time>
      </trkpt>
      <trkpt lat="50.818642498925328" lon="4.703469760715962">
        <ele>50.68</ele>
        <time>2020-11-11T13:05:35Z</time>
      </trkpt>
      <trkpt lat="50.818297499790788" lon="4.703592052683234">
        <ele>51.060000000000002</ele>
        <time>2020-11-11T13:06:05Z</time>
      </trkpt>
      <trkpt lat="50.817389152944088" lon="4.70377704128623">
        <ele>50.539999999999999</ele>
        <time>2020-11-11T13:07:31Z</time>
      </trkpt>
      <trkpt lat="50.817163847386837" lon="4.703768994659185">
        <ele>50.420000000000002</ele>
        <time>2020-11-11T13:07:45Z</time>
      </trkpt>
      <trkpt lat="50.816593123599887" lon="4.703950881958008">
        <ele>47.979999999999997</ele>
        <time>2020-11-11T13:08:29Z</time>
      </trkpt>
      <trkpt lat="50.81573917530477" lon="4.704115753993392">
        <ele>50.079999999999998</ele>
        <time>2020-11-11T13:09:48Z</time>
      </trkpt>
      <trkpt lat="50.815675389021635" lon="4.704159675166011">
        <ele>50.060000000000002</ele>
        <time>2020-11-11T13:09:52Z</time>
      </trkpt>
      <trkpt lat="50.815659714862704" lon="4.704168811440468">
        <ele>50.039999999999999</ele>
        <time>2020-11-11T13:09:53Z</time>
      </trkpt>
      <trkpt lat="50.815351512283087" lon="4.704271238297224">
        <ele>49.899999999999999</ele>
        <time>2020-11-11T13:10:07Z</time>
      </trkpt>
      <trkpt lat="50.815325696021318" lon="4.704265873879194">
        <ele>49.880000000000003</ele>
        <time>2020-11-11T13:10:08Z</time>
      </trkpt>
      <trkpt lat="50.815304992720485" lon="4.704274842515588">
        <ele>49.869999999999997</ele>
        <time>2020-11-11T13:10:09Z</time>
      </trkpt>
      <trkpt lat="50.81528470851481" lon="4.704287331551313">
        <ele>49.869999999999997</ele>
        <time>2020-11-11T13:10:10Z</time>
      </trkpt>
      <trkpt lat="50.815266771242023" lon="4.704298144206405">
        <ele>49.859999999999999</ele>
        <time>2020-11-11T13:10:11Z</time>
      </trkpt>
      <trkpt lat="50.815035095438361" lon="4.704375760629773">
        <ele>49.710000000000001</ele>
        <time>2020-11-11T13:10:19Z</time>
      </trkpt>
      <trkpt lat="50.815010368824005" lon="4.704389506950975">
        <ele>50.469999999999999</ele>
        <time>2020-11-11T13:10:20Z</time>
      </trkpt>
      <trkpt lat="50.814984971657395" lon="4.704405935481191">
        <ele>50.460000000000001</ele>
        <time>2020-11-11T13:10:21Z</time>
      </trkpt>
      <trkpt lat="50.814811466261744" lon="4.704519510269165">
        <ele>51.280000000000001</ele>
        <time>2020-11-11T13:10:28Z</time>
      </trkpt>
      <trkpt lat="50.814792104065418" lon="4.704540381208062">
        <ele>51.259999999999998</ele>
        <time>2020-11-11T13:10:29Z</time>
      </trkpt>
      <trkpt lat="50.814763605594635" lon="4.704558569937944">
        <ele>51.240000000000002</ele>
        <time>2020-11-11T13:10:30Z</time>
      </trkpt>
      <trkpt lat="50.814684648066759" lon="4.704600730910897">
        <ele>51.159999999999997</ele>
        <time>2020-11-11T13:10:34Z</time>
      </trkpt>
      <trkpt lat="50.814398657530546" lon="4.704778846353293">
        <ele>54.890000000000001</ele>
        <time>2020-11-11T13:10:46Z</time>
      </trkpt>
      <trkpt lat="50.81428206525743" lon="4.705009516328573">
        <ele>56.829999999999998</ele>
        <time>2020-11-11T13:10:52Z</time>
      </trkpt>
      <trkpt lat="50.814285837113857" lon="4.705567751079798">
        <ele>57.329999999999998</ele>
        <time>2020-11-11T13:11:03Z</time>
      </trkpt>
      <trkpt lat="50.81436856649816" lon="4.7057921346277">
        <ele>57.25</ele>
        <time>2020-11-11T13:11:10Z</time>
      </trkpt>
      <trkpt lat="50.814450960606337" lon="4.706272082403302">
        <ele>57.210000000000001</ele>
        <time>2020-11-11T13:11:22Z</time>
      </trkpt>
      <trkpt lat="50.814530337229371" lon="4.706512223929167">
        <ele>57.25</ele>
        <time>2020-11-11T13:11:29Z</time>
      </trkpt>
      <trkpt lat="50.814978182315826" lon="4.708447605371475">
        <ele>54.399999999999999</ele>
        <time>2020-11-11T13:12:13Z</time>
      </trkpt>
      <trkpt lat="50.814983043819666" lon="4.708477361127734">
        <ele>54.409999999999997</ele>
        <time>2020-11-11T13:12:14Z</time>
      </trkpt>
      <trkpt lat="50.814891429618001" lon="4.708884218707681">
        <ele>53.560000000000002</ele>
        <time>2020-11-11T13:12:30Z</time>
      </trkpt>
      <trkpt lat="50.814751787111163" lon="4.709122851490974">
        <ele>53.560000000000002</ele>
        <time>2020-11-11T13:12:45Z</time>
      </trkpt>
      <trkpt lat="50.814629914239049" lon="4.709290321916342">
        <ele>53.520000000000003</ele>
        <time>2020-11-11T13:12:59Z</time>
      </trkpt>
      <trkpt lat="50.814556237310171" lon="4.70941043458879">
        <ele>53.530000000000001</ele>
        <time>2020-11-11T13:13:06Z</time>
      </trkpt>
      <trkpt lat="50.814326740801334" lon="4.709690390154719">
        <ele>53.539999999999999</ele>
        <time>2020-11-11T13:13:20Z</time>
      </trkpt>
      <trkpt lat="50.814168490469456" lon="4.70983212813735">
        <ele>53.520000000000003</ele>
        <time>2020-11-11T13:13:31Z</time>
      </trkpt>
      <trkpt lat="50.813779570162296" lon="4.710057098418474">
        <ele>53.630000000000003</ele>
        <time>2020-11-11T13:14:02Z</time>
      </trkpt>
      <trkpt lat="50.813679741695523" lon="4.710155166685581">
        <ele>53.719999999999999</ele>
        <time>2020-11-11T13:14:14Z</time>
      </trkpt>
      <trkpt lat="50.81351587548852" lon="4.710282403975725">
        <ele>53.859999999999999</ele>
        <time>2020-11-11T13:14:27Z</time>
      </trkpt>
      <trkpt lat="50.813448233529925" lon="4.710346776992083">
        <ele>53.920000000000002</ele>
        <time>2020-11-11T13:14:34Z</time>
      </trkpt>
      <trkpt lat="50.813338598236442" lon="4.710442833602428">
        <ele>54</ele>
        <time>2020-11-11T13:14:45Z</time>
      </trkpt>
      <trkpt lat="50.813156459480524" lon="4.7105807159096">
        <ele>54.159999999999997</ele>
        <time>2020-11-11T13:14:55Z</time>
      </trkpt>
      <trkpt lat="50.812966274097562" lon="4.710770985111594">
        <ele>54.289999999999999</ele>
        <time>2020-11-11T13:15:07Z</time>
      </trkpt>
      <trkpt lat="50.812945486977696" lon="4.71079277805984">
        <ele>54.299999999999997</ele>
        <time>2020-11-11T13:15:08Z</time>
      </trkpt>
      <trkpt lat="50.812921933829784" lon="4.710813732817769">
        <ele>54.310000000000002</ele>
        <time>2020-11-11T13:15:09Z</time>
      </trkpt>
      <trkpt lat="50.812901733443141" lon="4.7108294069767">
        <ele>54.310000000000002</ele>
        <time>2020-11-11T13:15:10Z</time>
      </trkpt>
      <trkpt lat="50.812884718179703" lon="4.710840722545981">
        <ele>54.32</ele>
        <time>2020-11-11T13:15:11Z</time>
      </trkpt>
      <trkpt lat="50.812660921365023" lon="4.711011797189713">
        <ele>54.409999999999997</ele>
        <time>2020-11-11T13:15:21Z</time>
      </trkpt>
      <trkpt lat="50.812562601640821" lon="4.711054628714919">
        <ele>54.560000000000002</ele>
        <time>2020-11-11T13:15:34Z</time>
      </trkpt>
      <trkpt lat="50.812259260565042" lon="4.711095532402396">
        <ele>54.840000000000003</ele>
        <time>2020-11-11T13:16:01Z</time>
      </trkpt>
      <trkpt lat="50.812106039375067" lon="4.711155546829104">
        <ele>54.950000000000003</ele>
        <time>2020-11-11T13:16:12Z</time>
      </trkpt>
      <trkpt lat="50.812093801796436" lon="4.711155379191041">
        <ele>54.950000000000003</ele>
        <time>2020-11-11T13:16:13Z</time>
      </trkpt>
      <trkpt lat="50.812079468742013" lon="4.711156720295548">
        <ele>54.950000000000003</ele>
        <time>2020-11-11T13:16:14Z</time>
      </trkpt>
      <trkpt lat="50.812067901715636" lon="4.711161749437451">
        <ele>54.960000000000001</ele>
        <time>2020-11-11T13:16:15Z</time>
      </trkpt>
      <trkpt lat="50.812054742127657" lon="4.711168203502893">
        <ele>54.969999999999999</ele>
        <time>2020-11-11T13:16:16Z</time>
      </trkpt>
      <trkpt lat="50.811889534816146" lon="4.711241126060486">
        <ele>55.049999999999997</ele>
        <time>2020-11-11T13:16:29Z</time>
      </trkpt>
      <trkpt lat="50.811684178188443" lon="4.711308013647795">
        <ele>55.130000000000003</ele>
        <time>2020-11-11T13:16:41Z</time>
      </trkpt>
      <trkpt lat="50.811580158770084" lon="4.711402980610728">
        <ele>55.240000000000002</ele>
        <time>2020-11-11T13:16:54Z</time>
      </trkpt>
      <trkpt lat="50.81140355207026" lon="4.711542539298534">
        <ele>55.390000000000001</ele>
        <time>2020-11-11T13:17:08Z</time>
      </trkpt>
      <trkpt lat="50.811391146853566" lon="4.711538348346949">
        <ele>55.390000000000001</ele>
        <time>2020-11-11T13:17:09Z</time>
      </trkpt>
      <trkpt lat="50.811220239847898" lon="4.711590567603707">
        <ele>55.520000000000003</ele>
        <time>2020-11-11T13:17:21Z</time>
      </trkpt>
      <trkpt lat="50.811083195731044" lon="4.711650162935257">
        <ele>55.630000000000003</ele>
        <time>2020-11-11T13:17:32Z</time>
      </trkpt>
      <trkpt lat="50.811034915968776" lon="4.711665585637093">
        <ele>55.670000000000002</ele>
        <time>2020-11-11T13:17:36Z</time>
      </trkpt>
      <trkpt lat="50.811021085828543" lon="4.71167472191155">
        <ele>55.68</ele>
        <time>2020-11-11T13:17:37Z</time>
      </trkpt>
      <trkpt lat="50.811002645641565" lon="4.711682433262467">
        <ele>55.68</ele>
        <time>2020-11-11T13:17:38Z</time>
      </trkpt>
      <trkpt lat="50.81098822876811" lon="4.71168888732791">
        <ele>55.68</ele>
        <time>2020-11-11T13:17:39Z</time>
      </trkpt>
      <trkpt lat="50.810976661741734" lon="4.711696347221732">
        <ele>55.710000000000001</ele>
        <time>2020-11-11T13:17:40Z</time>
      </trkpt>
      <trkpt lat="50.810962999239564" lon="4.711703304201365">
        <ele>55.700000000000003</ele>
        <time>2020-11-11T13:17:41Z</time>
      </trkpt>
      <trkpt lat="50.810920586809516" lon="4.71172409132123">
        <ele>58.159999999999997</ele>
        <time>2020-11-11T13:17:45Z</time>
      </trkpt>
      <trkpt lat="50.810706932097673" lon="4.711880916729569">
        <ele>59.240000000000002</ele>
        <time>2020-11-11T13:18:04Z</time>
      </trkpt>
      <trkpt lat="50.810665190219879" lon="4.711926681920886">
        <ele>59.259999999999998</ele>
        <time>2020-11-11T13:18:08Z</time>
      </trkpt>
      <trkpt lat="50.81045807339251" lon="4.712121142074466">
        <ele>60.600000000000001</ele>
        <time>2020-11-11T13:18:26Z</time>
      </trkpt>
      <trkpt lat="50.810451367869973" lon="4.712123656645417">
        <ele>57.479999999999997</ele>
        <time>2020-11-11T13:18:27Z</time>
      </trkpt>
      <trkpt lat="50.810436280444264" lon="4.712127931416035">
        <ele>61.450000000000003</ele>
        <time>2020-11-11T13:18:28Z</time>
      </trkpt>
      <trkpt lat="50.810301331803203" lon="4.712198087945581">
        <ele>61.509999999999998</ele>
        <time>2020-11-11T13:18:38Z</time>
      </trkpt>
      <trkpt lat="50.810130843892694" lon="4.712287439033389">
        <ele>61.600000000000001</ele>
        <time>2020-11-11T13:18:57Z</time>
      </trkpt>
      <trkpt lat="50.810125395655632" lon="4.712346279993653">
        <ele>61.619999999999997</ele>
        <time>2020-11-11T13:19:05Z</time>
      </trkpt>
      <trkpt lat="50.810105446726084" lon="4.712415095418692">
        <ele>61.649999999999999</ele>
        <time>2020-11-11T13:19:10Z</time>
      </trkpt>
      <trkpt lat="50.809641592204571" lon="4.713749159127474">
        <ele>62.490000000000002</ele>
        <time>2020-11-11T13:19:26Z</time>
      </trkpt>
      <trkpt lat="50.809830268844962" lon="4.717879509553313">
        <ele>62.549999999999997</ele>
        <time>2020-11-11T13:19:45Z</time>
      </trkpt>
      <trkpt lat="50.810485985130072" lon="4.719583634287119">
        <ele>62.619999999999997</ele>
        <time>2020-11-11T13:20:00Z</time>
      </trkpt>
      <trkpt lat="50.809039687737823" lon="4.721345510333777">
        <ele>60.369999999999997</ele>
        <time>2020-11-11T13:20:13Z</time>
      </trkpt>
      <trkpt lat="50.807665307074785" lon="4.722428619861603">
        <ele>59.549999999999997</ele>
        <time>2020-11-11T13:20:33Z</time>
      </trkpt>
      <trkpt lat="50.807099360972643" lon="4.724017241969705">
        <ele>58.770000000000003</ele>
        <time>2020-11-11T13:20:43Z</time>
      </trkpt>
      <trkpt lat="50.805482408031821" lon="4.724262747913599">
        <ele>59.210000000000001</ele>
        <time>2020-11-11T13:20:59Z</time>
      </trkpt>
      <trkpt lat="50.803824299946427" lon="4.725937955081463">
        <ele>56.93</ele>
        <time>2020-11-11T13:21:11Z</time>
      </trkpt>
      <trkpt lat="50.803042771294713" lon="4.724898179993033">
        <ele>56.939999999999998</ele>
        <time>2020-11-11T13:21:12Z</time>
      </trkpt>
      <trkpt lat="50.801964774727821" lon="4.724854845553637">
        <ele>56.200000000000003</ele>
        <time>2020-11-11T13:21:24Z</time>
      </trkpt>
      <trkpt lat="50.8012371417135" lon="4.72367056645453">
        <ele>56.219999999999999</ele>
        <time>2020-11-11T13:21:27Z</time>
      </trkpt>
      <trkpt lat="50.801017032936215" lon="4.723786152899265">
        <ele>56.229999999999997</ele>
        <time>2020-11-11T13:21:30Z</time>
      </trkpt>
      <trkpt lat="50.800628447905183" lon="4.723179554566741">
        <ele>56.240000000000002</ele>
        <time>2020-11-11T13:21:31Z</time>
      </trkpt>
      <trkpt lat="50.79853305593133" lon="4.720970001071692">
        <ele>55.520000000000003</ele>
        <time>2020-11-11T13:21:42Z</time>
      </trkpt>
      <trkpt lat="50.798640847206116" lon="4.720536740496755">
        <ele>54.75</ele>
        <time>2020-11-11T13:21:56Z</time>
      </trkpt>
      <trkpt lat="50.796228786930442" lon="4.717475082725287">
        <ele>54.850000000000001</ele>
        <time>2020-11-11T13:22:10Z</time>
      </trkpt>
      <trkpt lat="50.796839660033584" lon="4.716550810262561">
        <ele>54.130000000000003</ele>
        <time>2020-11-11T13:22:23Z</time>
      </trkpt>
      <trkpt lat="50.808625537902117" lon="4.712940389290452">
        <ele>54.259999999999998</ele>
        <time>2020-11-11T13:22:40Z</time>
      </trkpt>
      <trkpt lat="50.806920910254121" lon="4.713580766692758">
        <ele>54.350000000000001</ele>
        <time>2020-11-11T13:22:52Z</time>
      </trkpt>
      <trkpt lat="50.806775065138936" lon="4.713622843846679">
        <ele>54.43</ele>
        <time>2020-11-11T13:23:06Z</time>
      </trkpt>
      <trkpt lat="50.806596027687192" lon="4.713714793324471">
        <ele>53.630000000000003</ele>
        <time>2020-11-11T13:23:19Z</time>
      </trkpt>
      <trkpt lat="50.806055227294564" lon="4.71385502256453">
        <ele>52.909999999999997</ele>
        <time>2020-11-11T13:23:46Z</time>
      </trkpt>
      <trkpt lat="50.806035278365016" lon="4.713868601247668">
        <ele>52.909999999999997</ele>
        <time>2020-11-11T13:23:47Z</time>
      </trkpt>
      <trkpt lat="50.805997140705585" lon="4.713895758613944">
        <ele>52.909999999999997</ele>
        <time>2020-11-11T13:23:48Z</time>
      </trkpt>
      <trkpt lat="50.80596562474966" lon="4.713910594582558">
        <ele>52.909999999999997</ele>
        <time>2020-11-11T13:23:49Z</time>
      </trkpt>
      <trkpt lat="50.805929414927959" lon="4.713919730857015">
        <ele>52.909999999999997</ele>
        <time>2020-11-11T13:23:50Z</time>
      </trkpt>
      <trkpt lat="50.805891025811434" lon="4.713927945122123">
        <ele>52.909999999999997</ele>
        <time>2020-11-11T13:23:51Z</time>
      </trkpt>
      <trkpt lat="50.805857246741652" lon="4.713936746120453">
        <ele>52.909999999999997</ele>
        <time>2020-11-11T13:23:52Z</time>
      </trkpt>
      <trkpt lat="50.805505122989416" lon="4.714081333950162">
        <ele>52.869999999999997</ele>
        <time>2020-11-11T13:24:02Z</time>
      </trkpt>
      <trkpt lat="50.805188873782754" lon="4.714190717786551">
        <ele>52.789999999999999</ele>
        <time>2020-11-11T13:24:12Z</time>
      </trkpt>
      <trkpt lat="50.804895590990782" lon="4.714249474927783">
        <ele>52.719999999999999</ele>
        <time>2020-11-11T13:24:20Z</time>
      </trkpt>
      <trkpt lat="50.804784027859569" lon="4.714319715276361">
        <ele>55.130000000000003</ele>
        <time>2020-11-11T13:24:23Z</time>
      </trkpt>
      <trkpt lat="50.802529966458678" lon="4.715034943073988">
        <ele>45.579999999999998</ele>
        <time>2020-11-11T13:26:07Z</time>
      </trkpt>
      <trkpt lat="50.802374063059688" lon="4.715054724365473">
        <ele>43.920000000000002</ele>
        <time>2020-11-11T13:26:21Z</time>
      </trkpt>
      <trkpt lat="50.802257554605603" lon="4.71477409824729">
        <ele>44.07</ele>
        <time>2020-11-11T13:26:40Z</time>
      </trkpt>
      <trkpt lat="50.802242131903768" lon="4.714710060507059">
        <ele>44.079999999999998</ele>
        <time>2020-11-11T13:26:42Z</time>
      </trkpt>
      <trkpt lat="50.802116990089417" lon="4.714303286746144">
        <ele>44.200000000000003</ele>
        <time>2020-11-11T13:27:01Z</time>
      </trkpt>
      <trkpt lat="50.802076421678066" lon="4.714194908738136">
        <ele>44.229999999999997</ele>
        <time>2020-11-11T13:27:07Z</time>
      </trkpt>
      <trkpt lat="50.802068458870053" lon="4.714168924838305">
        <ele>44.229999999999997</ele>
        <time>2020-11-11T13:27:08Z</time>
      </trkpt>
      <trkpt lat="50.802020262926817" lon="4.714019475504756">
        <ele>44.259999999999998</ele>
        <time>2020-11-11T13:27:17Z</time>
      </trkpt>
      <trkpt lat="50.801937533542514" lon="4.713667184114456">
        <ele>44.43</ele>
        <time>2020-11-11T13:27:36Z</time>
      </trkpt>
      <trkpt lat="50.801906185224652" lon="4.713529888540506">
        <ele>44.469999999999999</ele>
        <time>2020-11-11T13:27:41Z</time>
      </trkpt>
      <trkpt lat="50.801898222416639" lon="4.71350516192615">
        <ele>44.479999999999997</ele>
        <time>2020-11-11T13:27:42Z</time>
      </trkpt>
      <trkpt lat="50.80181859433651" lon="4.713191762566567">
        <ele>44.579999999999998</ele>
        <time>2020-11-11T13:27:54Z</time>
      </trkpt>
      <trkpt lat="50.801815241575241" lon="4.713164689019322">
        <ele>44.590000000000003</ele>
        <time>2020-11-11T13:27:55Z</time>
      </trkpt>
      <trkpt lat="50.801746426150203" lon="4.712965115904808">
        <ele>44.689999999999998</ele>
        <time>2020-11-11T13:28:03Z</time>
      </trkpt>
      <trkpt lat="50.801742654293776" lon="4.712941478937864">
        <ele>44.689999999999998</ele>
        <time>2020-11-11T13:28:04Z</time>
      </trkpt>
      <trkpt lat="50.801692362874746" lon="4.71265884116292">
        <ele>44.789999999999999</ele>
        <time>2020-11-11T13:28:16Z</time>
      </trkpt>
      <trkpt lat="50.801686160266399" lon="4.712639395147562">
        <ele>47.07</ele>
        <time>2020-11-11T13:28:17Z</time>
      </trkpt>
      <trkpt lat="50.80167543143034" lon="4.712615925818682">
        <ele>47.07</ele>
        <time>2020-11-11T13:28:18Z</time>
      </trkpt>
      <trkpt lat="50.801661685109138" lon="4.71258114092052">
        <ele>47.079999999999998</ele>
        <time>2020-11-11T13:28:20Z</time>
      </trkpt>
      <trkpt lat="50.801653722301126" lon="4.712557336315513">
        <ele>47.090000000000003</ele>
        <time>2020-11-11T13:28:21Z</time>
      </trkpt>
      <trkpt lat="50.801646430045366" lon="4.71232264302671">
        <ele>47.200000000000003</ele>
        <time>2020-11-11T13:28:34Z</time>
      </trkpt>
      <trkpt lat="50.800991971045732" lon="4.709853166714311">
        <ele>53.93</ele>
        <time>2020-11-11T13:31:01Z</time>
      </trkpt>
      <trkpt lat="50.800875714048743" lon="4.709769180044532">
        <ele>53.899999999999999</ele>
        <time>2020-11-11T13:31:11Z</time>
      </trkpt>
      <trkpt lat="50.800858531147242" lon="4.709756104275584">
        <ele>53.880000000000003</ele>
        <time>2020-11-11T13:31:12Z</time>
      </trkpt>
      <trkpt lat="50.800841767340899" lon="4.709738586097956">
        <ele>53.869999999999997</ele>
        <time>2020-11-11T13:31:13Z</time>
      </trkpt>
      <trkpt lat="50.800632303580642" lon="4.709583353251219">
        <ele>54.439999999999998</ele>
        <time>2020-11-11T13:31:30Z</time>
      </trkpt>
      <trkpt lat="50.80044949427247" lon="4.709627358242869">
        <ele>54.119999999999997</ele>
        <time>2020-11-11T13:31:48Z</time>
      </trkpt>
      <trkpt lat="50.79986410215497" lon="4.709701454266906">
        <ele>53.579999999999998</ele>
        <time>2020-11-11T13:32:27Z</time>
      </trkpt>
      <trkpt lat="50.799655141308904" lon="4.709637248888612">
        <ele>53.380000000000003</ele>
        <time>2020-11-11T13:32:41Z</time>
      </trkpt>
      <trkpt lat="50.798991294577718" lon="4.709370536729693">
        <ele>53.060000000000002</ele>
        <time>2020-11-11T13:33:04Z</time>
      </trkpt>
      <trkpt lat="50.798995736986399" lon="4.709276659414172">
        <ele>84.53125</ele>
      </trkpt>
      <trkpt lat="50.798986768350005" lon="4.709226116538048">
        <ele>84.375</ele>
      </trkpt>
      <trkpt lat="50.798955336213112" lon="4.709168365225196">
        <ele>84.41796875</ele>
      </trkpt>
      <trkpt lat="50.799306705594063" lon="4.70903567969799">
        <ele>54.020000000000003</ele>
        <time>2020-11-11T13:33:08Z</time>
      </trkpt>
      <trkpt lat="50.799630079418421" lon="4.708789000287652">
        <ele>54.590000000000003</ele>
        <time>2020-11-11T13:33:32Z</time>
      </trkpt>
      <trkpt lat="50.799739966169" lon="4.708746420219541">
        <ele>54.450000000000003</ele>
        <time>2020-11-11T13:33:40Z</time>
      </trkpt>
      <trkpt lat="50.799909280613065" lon="4.70863058231771">
        <ele>55.219999999999999</ele>
        <time>2020-11-11T13:33:54Z</time>
      </trkpt>
      <trkpt lat="50.800017910078168" lon="4.708561096340418">
        <ele>55.109999999999999</ele>
        <time>2020-11-11T13:34:08Z</time>
      </trkpt>
      <trkpt lat="50.800095107406378" lon="4.708308717235923">
        <ele>54.899999999999999</ele>
        <time>2020-11-11T13:34:25Z</time>
      </trkpt>
      <trkpt lat="50.800106842070818" lon="4.708189945667982">
        <ele>54.840000000000003</ele>
        <time>2020-11-11T13:34:30Z</time>
      </trkpt>
      <trkpt lat="50.800105752423406" lon="4.708000849932432">
        <ele>54.719999999999999</ele>
        <time>2020-11-11T13:34:40Z</time>
      </trkpt>
      <trkpt lat="50.800094604492188" lon="4.707915019243956">
        <ele>54.659999999999997</ele>
        <time>2020-11-11T13:34:44Z</time>
      </trkpt>
      <trkpt lat="50.800095610320568" lon="4.707826171070337">
        <ele>55.759999999999998</ele>
        <time>2020-11-11T13:34:48Z</time>
      </trkpt>
      <trkpt lat="50.800065100193024" lon="4.707640931010246">
        <ele>55.640000000000001</ele>
        <time>2020-11-11T13:34:57Z</time>
      </trkpt>
      <trkpt lat="50.800055963918567" lon="4.707586448639631">
        <ele>55.609999999999999</ele>
        <time>2020-11-11T13:34:59Z</time>
      </trkpt>
      <trkpt lat="50.800042552873492" lon="4.707363825291395">
        <ele>55.450000000000003</ele>
        <time>2020-11-11T13:35:09Z</time>
      </trkpt>
      <trkpt lat="50.800181441009045" lon="4.70719400793314">
        <ele>55.170000000000002</ele>
        <time>2020-11-11T13:35:25Z</time>
      </trkpt>
      <trkpt lat="50.800320329144597" lon="4.707097699865699">
        <ele>54.859999999999999</ele>
        <time>2020-11-11T13:35:41Z</time>
      </trkpt>
      <trkpt lat="50.80051495693624" lon="4.706992674618959">
        <ele>54.630000000000003</ele>
        <time>2020-11-11T13:35:53Z</time>
      </trkpt>
      <trkpt lat="50.800540521740913" lon="4.706783881410956">
        <ele>50.289999999999999</ele>
        <time>2020-11-11T13:36:38Z</time>
      </trkpt>
      <trkpt lat="50.800535995513201" lon="4.706769548356533">
        <ele>54.07</ele>
        <time>2020-11-11T13:36:39Z</time>
      </trkpt>
      <trkpt lat="50.800457708537579" lon="4.706432176753879">
        <ele>53.82</ele>
        <time>2020-11-11T13:36:56Z</time>
      </trkpt>
      <trkpt lat="50.800447901710868" lon="4.706343077123165">
        <ele>51.310000000000002</ele>
        <time>2020-11-11T13:37:00Z</time>
      </trkpt>
      <trkpt lat="50.800384702160954" lon="4.706026492640376">
        <ele>49.409999999999997</ele>
        <time>2020-11-11T13:37:16Z</time>
      </trkpt>
      <trkpt lat="50.800363998860121" lon="4.705971339717507">
        <ele>49.409999999999997</ele>
        <time>2020-11-11T13:37:18Z</time>
      </trkpt>
      <trkpt lat="50.80031949095428" lon="4.705699095502496">
        <ele>46.939999999999998</ele>
        <time>2020-11-11T13:37:30Z</time>
      </trkpt>
      <trkpt lat="50.800241371616721" lon="4.705343535169959">
        <ele>43.420000000000002</ele>
        <time>2020-11-11T13:37:49Z</time>
      </trkpt>
      <trkpt lat="50.800239443778992" lon="4.705323250964284">
        <ele>43.409999999999997</ele>
        <time>2020-11-11T13:37:50Z</time>
      </trkpt>
      <trkpt lat="50.800229720771313" lon="4.705275557935238">
        <ele>45.740000000000002</ele>
        <time>2020-11-11T13:37:52Z</time>
      </trkpt>
      <trkpt lat="50.800175154581666" lon="4.705008510500193">
        <ele>43.369999999999997</ele>
        <time>2020-11-11T13:38:04Z</time>
      </trkpt>
      <trkpt lat="50.800111200660467" lon="4.704801896587014">
        <ele>43.299999999999997</ele>
        <time>2020-11-11T13:38:14Z</time>
      </trkpt>
      <trkpt lat="50.800035428255796" lon="4.704638114199042">
        <ele>43.25</ele>
        <time>2020-11-11T13:38:19Z</time>
      </trkpt>
      <trkpt lat="50.8000248670578" lon="4.70459109172225">
        <ele>43.25</ele>
        <time>2020-11-11T13:38:20Z</time>
      </trkpt>
      <trkpt lat="50.800010031089187" lon="4.704541806131601">
        <ele>43.240000000000002</ele>
        <time>2020-11-11T13:38:21Z</time>
      </trkpt>
      <trkpt lat="50.799996284767985" lon="4.704483635723591">
        <ele>43.229999999999997</ele>
        <time>2020-11-11T13:38:22Z</time>
      </trkpt>
      <trkpt lat="50.799925792962313" lon="4.704081639647484">
        <ele>45.469999999999999</ele>
        <time>2020-11-11T13:38:30Z</time>
      </trkpt>
      <trkpt lat="50.79991883598268" lon="4.704045262187719">
        <ele>46.609999999999999</ele>
        <time>2020-11-11T13:38:31Z</time>
      </trkpt>
      <trkpt lat="50.799912717193365" lon="4.704009555280209">
        <ele>46.619999999999997</ele>
        <time>2020-11-11T13:38:32Z</time>
      </trkpt>
      <trkpt lat="50.799910621717572" lon="4.703975776210427">
        <ele>46.609999999999999</ele>
        <time>2020-11-11T13:38:33Z</time>
      </trkpt>
      <trkpt lat="50.799908442422748" lon="4.703936381265521">
        <ele>46.600000000000001</ele>
        <time>2020-11-11T13:38:34Z</time>
      </trkpt>
      <trkpt lat="50.799896791577339" lon="4.703880473971367">
        <ele>47.57</ele>
        <time>2020-11-11T13:38:35Z</time>
      </trkpt>
      <trkpt lat="50.799886817112565" lon="4.703849377110601">
        <ele>47.549999999999997</ele>
        <time>2020-11-11T13:38:36Z</time>
      </trkpt>
      <trkpt lat="50.799871226772666" lon="4.703799337148666">
        <ele>47.530000000000001</ele>
        <time>2020-11-11T13:38:37Z</time>
      </trkpt>
      <trkpt lat="50.799861922860146" lon="4.703770587220788">
        <ele>47.520000000000003</ele>
        <time>2020-11-11T13:38:38Z</time>
      </trkpt>
      <trkpt lat="50.799849266186357" lon="4.703739155083895">
        <ele>47.509999999999998</ele>
        <time>2020-11-11T13:38:39Z</time>
      </trkpt>
      <trkpt lat="50.799836777150631" lon="4.703716607764363">
        <ele>48.259999999999998</ele>
        <time>2020-11-11T13:38:40Z</time>
      </trkpt>
      <trkpt lat="50.79982303082943" lon="4.703686852008104">
        <ele>48.240000000000002</ele>
        <time>2020-11-11T13:38:41Z</time>
      </trkpt>
      <trkpt lat="50.799809535965323" lon="4.703589621931315">
        <ele>48.170000000000002</ele>
        <time>2020-11-11T13:38:44Z</time>
      </trkpt>
      <trkpt lat="50.799700655043125" lon="4.703165329992771">
        <ele>48.840000000000003</ele>
        <time>2020-11-11T13:38:55Z</time>
      </trkpt>
      <trkpt lat="50.799704929813743" lon="4.703085785731673">
        <ele>48.729999999999997</ele>
        <time>2020-11-11T13:38:58Z</time>
      </trkpt>
      <trkpt lat="50.799693614244461" lon="4.703024849295616">
        <ele>48.689999999999998</ele>
        <time>2020-11-11T13:39:00Z</time>
      </trkpt>
      <trkpt lat="50.799683723598719" lon="4.70295125618577">
        <ele>48.630000000000003</ele>
        <time>2020-11-11T13:39:02Z</time>
      </trkpt>
      <trkpt lat="50.799681125208735" lon="4.702898617833853">
        <ele>48.600000000000001</ele>
        <time>2020-11-11T13:39:03Z</time>
      </trkpt>
      <trkpt lat="50.799566963687539" lon="4.702325630933046">
        <ele>49.109999999999999</ele>
        <time>2020-11-11T13:39:13Z</time>
      </trkpt>
      <trkpt lat="50.799486078321934" lon="4.701994881033897">
        <ele>49.490000000000002</ele>
        <time>2020-11-11T13:39:26Z</time>
      </trkpt>
      <trkpt lat="50.799355488270521" lon="4.701417703181505">
        <ele>49.079999999999998</ele>
        <time>2020-11-11T13:39:37Z</time>
      </trkpt>
      <trkpt lat="50.799250714480877" lon="4.700755951926112">
        <ele>48.539999999999999</ele>
        <time>2020-11-11T13:39:48Z</time>
      </trkpt>
      <trkpt lat="50.799060110002756" lon="4.699591202661395">
        <ele>48.920000000000002</ele>
        <time>2020-11-11T13:40:12Z</time>
      </trkpt>
      <trkpt lat="50.79904904589057" lon="4.699527500197291">
        <ele>48.869999999999997</ele>
        <time>2020-11-11T13:40:13Z</time>
      </trkpt>
      <trkpt lat="50.798757690936327" lon="4.698216989636421">
        <ele>50.240000000000002</ele>
        <time>2020-11-11T13:40:34Z</time>
      </trkpt>
      <trkpt lat="50.798656521365047" lon="4.697859333828092">
        <ele>50.770000000000003</ele>
        <time>2020-11-11T13:40:40Z</time>
      </trkpt>
      <trkpt lat="50.798650234937668" lon="4.697822872549295">
        <ele>50.740000000000002</ele>
        <time>2020-11-11T13:40:41Z</time>
      </trkpt>
      <trkpt lat="50.798643277958035" lon="4.697790266945958">
        <ele>50.689999999999998</ele>
        <time>2020-11-11T13:40:42Z</time>
      </trkpt>
      <trkpt lat="50.798635398969054" lon="4.697746429592371">
        <ele>50.649999999999999</ele>
        <time>2020-11-11T13:40:43Z</time>
      </trkpt>
      <trkpt lat="50.798633806407452" lon="4.697710135951638">
        <ele>50.619999999999997</ele>
        <time>2020-11-11T13:40:44Z</time>
      </trkpt>
      <trkpt lat="50.798610169440508" lon="4.697544844821096">
        <ele>50.399999999999999</ele>
        <time>2020-11-11T13:40:48Z</time>
      </trkpt>
      <trkpt lat="50.798580916598439" lon="4.697453901171684">
        <ele>50.32</ele>
        <time>2020-11-11T13:40:50Z</time>
      </trkpt>
      <trkpt lat="50.798563566058874" lon="4.697410985827446">
        <ele>50.289999999999999</ele>
        <time>2020-11-11T13:40:51Z</time>
      </trkpt>
      <trkpt lat="50.798548143357038" lon="4.6973598562181">
        <ele>50.270000000000003</ele>
        <time>2020-11-11T13:40:52Z</time>
      </trkpt>
      <trkpt lat="50.798533391207457" lon="4.697301182895899">
        <ele>50.240000000000002</ele>
        <time>2020-11-11T13:40:53Z</time>
      </trkpt>
      <trkpt lat="50.798513442277908" lon="4.697224069386721">
        <ele>50.210000000000001</ele>
        <time>2020-11-11T13:40:54Z</time>
      </trkpt>
      <trkpt lat="50.798496259376407" lon="4.697168078273535">
        <ele>50.18</ele>
        <time>2020-11-11T13:40:55Z</time>
      </trkpt>
      <trkpt lat="50.798481339588761" lon="4.697110494598746">
        <ele>50.159999999999997</ele>
        <time>2020-11-11T13:40:56Z</time>
      </trkpt>
      <trkpt lat="50.79839383251965" lon="4.696795083582401">
        <ele>51.689999999999998</ele>
        <time>2020-11-11T13:41:02Z</time>
      </trkpt>
      <trkpt lat="50.798380672931671" lon="4.696739846840501">
        <ele>52.490000000000002</ele>
        <time>2020-11-11T13:41:03Z</time>
      </trkpt>
      <trkpt lat="50.798366004601121" lon="4.696676563471556">
        <ele>52.460000000000001</ele>
        <time>2020-11-11T13:41:04Z</time>
      </trkpt>
      <trkpt lat="50.798360724002123" lon="4.696612525731325">
        <ele>52.439999999999998</ele>
        <time>2020-11-11T13:41:05Z</time>
      </trkpt>
      <trkpt lat="50.798353347927332" lon="4.696548320353031">
        <ele>52.409999999999997</ele>
        <time>2020-11-11T13:41:06Z</time>
      </trkpt>
      <trkpt lat="50.79833809286356" lon="4.696496184915304">
        <ele>52.390000000000001</ele>
        <time>2020-11-11T13:41:07Z</time>
      </trkpt>
      <trkpt lat="50.79832199960947" lon="4.696438433602452">
        <ele>52.359999999999999</ele>
        <time>2020-11-11T13:41:08Z</time>
      </trkpt>
      <trkpt lat="50.798226865008473" lon="4.696039287373424">
        <ele>53.079999999999998</ele>
        <time>2020-11-11T13:41:17Z</time>
      </trkpt>
      <trkpt lat="50.798221752047539" lon="4.696014393121004">
        <ele>53.030000000000001</ele>
        <time>2020-11-11T13:41:18Z</time>
      </trkpt>
      <trkpt lat="50.798217980191112" lon="4.695976255461574">
        <ele>53</ele>
        <time>2020-11-11T13:41:19Z</time>
      </trkpt>
      <trkpt lat="50.798213956877589" lon="4.695928646251559">
        <ele>52.950000000000003</ele>
        <time>2020-11-11T13:41:20Z</time>
      </trkpt>
      <trkpt lat="50.798209430649877" lon="4.695873241871595">
        <ele>52.920000000000002</ele>
        <time>2020-11-11T13:41:21Z</time>
      </trkpt>
      <trkpt lat="50.798182608559728" lon="4.6957918535918">
        <ele>52.810000000000002</ele>
        <time>2020-11-11T13:41:23Z</time>
      </trkpt>
      <trkpt lat="50.79817489720881" lon="4.695758242160082">
        <ele>53.649999999999999</ele>
        <time>2020-11-11T13:41:24Z</time>
      </trkpt>
      <trkpt lat="50.798175316303968" lon="4.695705603808165">
        <ele>53.619999999999997</ele>
        <time>2020-11-11T13:41:25Z</time>
      </trkpt>
      <trkpt lat="50.79816953279078" lon="4.695652043446899">
        <ele>53.590000000000003</ele>
        <time>2020-11-11T13:41:26Z</time>
      </trkpt>
      <trkpt lat="50.798163330182433" lon="4.695609295740724">
        <ele>53.530000000000001</ele>
        <time>2020-11-11T13:41:27Z</time>
      </trkpt>
      <trkpt lat="50.798163833096623" lon="4.695558501407504">
        <ele>53.490000000000002</ele>
        <time>2020-11-11T13:41:28Z</time>
      </trkpt>
      <trkpt lat="50.798154529184103" lon="4.695506449788809">
        <ele>53.450000000000003</ele>
        <time>2020-11-11T13:41:29Z</time>
      </trkpt>
      <trkpt lat="50.798149248585105" lon="4.695457080379129">
        <ele>53.409999999999997</ele>
        <time>2020-11-11T13:41:30Z</time>
      </trkpt>
      <trkpt lat="50.798135586082935" lon="4.695413745939732">
        <ele>53.359999999999999</ele>
        <time>2020-11-11T13:41:31Z</time>
      </trkpt>
      <trkpt lat="50.798121420666575" lon="4.695364711806178">
        <ele>53.329999999999998</ele>
        <time>2020-11-11T13:41:32Z</time>
      </trkpt>
      <trkpt lat="50.798118319362402" lon="4.695324478670955">
        <ele>53.289999999999999</ele>
        <time>2020-11-11T13:41:33Z</time>
      </trkpt>
      <trkpt lat="50.798109518364072" lon="4.695291286334395">
        <ele>53.240000000000002</ele>
        <time>2020-11-11T13:41:34Z</time>
      </trkpt>
      <trkpt lat="50.798100549727678" lon="4.695228841155767">
        <ele>53.200000000000003</ele>
        <time>2020-11-11T13:41:35Z</time>
      </trkpt>
      <trkpt lat="50.798089150339365" lon="4.695178549736738">
        <ele>53.159999999999997</ele>
        <time>2020-11-11T13:41:36Z</time>
      </trkpt>
      <trkpt lat="50.798065345734358" lon="4.695103112608194">
        <ele>53.109999999999999</ele>
        <time>2020-11-11T13:41:37Z</time>
      </trkpt>
      <trkpt lat="50.798050677403808" lon="4.695031698793173">
        <ele>53.079999999999998</ele>
        <time>2020-11-11T13:41:38Z</time>
      </trkpt>
      <trkpt lat="50.798039780929685" lon="4.694968163967133">
        <ele>53.039999999999999</ele>
        <time>2020-11-11T13:41:39Z</time>
      </trkpt>
      <trkpt lat="50.798040283843875" lon="4.694925248622894">
        <ele>52.990000000000002</ele>
        <time>2020-11-11T13:41:40Z</time>
      </trkpt>
      <trkpt lat="50.797616830095649" lon="4.693270828574896">
        <ele>52.729999999999997</ele>
        <time>2020-11-11T13:42:09Z</time>
      </trkpt>
      <trkpt lat="50.797401247546077" lon="4.692851984873414">
        <ele>52.390000000000001</ele>
        <time>2020-11-11T13:42:17Z</time>
      </trkpt>
      <trkpt lat="50.797365289181471" lon="4.692837567999959">
        <ele>51.979999999999997</ele>
        <time>2020-11-11T13:42:36Z</time>
      </trkpt>
      <trkpt lat="50.797619512304664" lon="4.692898923531175">
        <ele>51.840000000000003</ele>
        <time>2020-11-11T13:42:43Z</time>
      </trkpt>
      <trkpt lat="50.797733003273606" lon="4.69307653605938">
        <ele>52.369999999999997</ele>
        <time>2020-11-11T13:43:01Z</time>
      </trkpt>
      <trkpt lat="50.797944897785783" lon="4.693300081416965">
        <ele>52.210000000000001</ele>
        <time>2020-11-11T13:43:17Z</time>
      </trkpt>
      <trkpt lat="50.798027962446213" lon="4.693328915163875">
        <ele>52.130000000000003</ele>
        <time>2020-11-11T13:43:27Z</time>
      </trkpt>
      <trkpt lat="50.798441274091601" lon="4.693642482161522">
        <ele>51.880000000000003</ele>
        <time>2020-11-11T13:44:08Z</time>
      </trkpt>
      <trkpt lat="50.798543030396104" lon="4.69364482909441">
        <ele>52.609999999999999</ele>
        <time>2020-11-11T13:44:18Z</time>
      </trkpt>
      <trkpt lat="50.798678481951356" lon="4.693809198215604">
        <ele>52.530000000000001</ele>
        <time>2020-11-11T13:44:35Z</time>
      </trkpt>
      <trkpt lat="50.798701280727983" lon="4.693830655887723">
        <ele>52.530000000000001</ele>
        <time>2020-11-11T13:44:37Z</time>
      </trkpt>
      <trkpt lat="50.799019122496247" lon="4.693982200697064">
        <ele>52.469999999999999</ele>
        <time>2020-11-11T13:44:54Z</time>
      </trkpt>
      <trkpt lat="50.799131272360682" lon="4.69409191980958">
        <ele>52.420000000000002</ele>
        <time>2020-11-11T13:45:02Z</time>
      </trkpt>
      <trkpt lat="50.799169493839145" lon="4.694202812388539">
        <ele>52.390000000000001</ele>
        <time>2020-11-11T13:45:08Z</time>
      </trkpt>
      <trkpt lat="50.799827557057142" lon="4.69499004073441">
        <ele>51.539999999999999</ele>
        <time>2020-11-11T13:46:12Z</time>
      </trkpt>
      <trkpt lat="50.799930235370994" lon="4.695028262212873">
        <ele>51.469999999999999</ele>
        <time>2020-11-11T13:46:15Z</time>
      </trkpt>
      <trkpt lat="50.800006845965981" lon="4.695089031010866">
        <ele>51.380000000000003</ele>
        <time>2020-11-11T13:46:19Z</time>
      </trkpt>
      <trkpt lat="50.800172304734588" lon="4.695192882791162">
        <ele>51.149999999999999</ele>
        <time>2020-11-11T13:46:28Z</time>
      </trkpt>
      <trkpt lat="50.800277749076486" lon="4.6954102255404">
        <ele>50.880000000000003</ele>
        <time>2020-11-11T13:46:38Z</time>
      </trkpt>
      <trkpt lat="50.800357796251774" lon="4.695496642962098">
        <ele>50.700000000000003</ele>
        <time>2020-11-11T13:46:44Z</time>
      </trkpt>
      <trkpt lat="50.800398783758283" lon="4.695506365969777">
        <ele>50.609999999999999</ele>
        <time>2020-11-11T13:46:47Z</time>
      </trkpt>
      <trkpt lat="50.800499198958278" lon="4.695510724559426">
        <ele>50.43</ele>
        <time>2020-11-11T13:46:53Z</time>
      </trkpt>
      <trkpt lat="50.800561895594001" lon="4.695436796173453">
        <ele>50.270000000000003</ele>
        <time>2020-11-11T13:46:58Z</time>
      </trkpt>
      <trkpt lat="50.800663651898503" lon="4.695263877511025">
        <ele>49.899999999999999</ele>
        <time>2020-11-11T13:47:10Z</time>
      </trkpt>
      <trkpt lat="50.80079834908247" lon="4.694966403767467">
        <ele>52.060000000000002</ele>
        <time>2020-11-11T13:47:30Z</time>
      </trkpt>
      <trkpt lat="50.800998425111175" lon="4.694674042984843">
        <ele>52.829999999999998</ele>
        <time>2020-11-11T13:47:52Z</time>
      </trkpt>
      <trkpt lat="50.80118291079998" lon="4.694226952269673">
        <ele>52.189999999999998</ele>
        <time>2020-11-11T13:48:11Z</time>
      </trkpt>
      <trkpt lat="50.801314171403646" lon="4.693954875692725">
        <ele>54.32</ele>
        <time>2020-11-11T13:48:28Z</time>
      </trkpt>
      <trkpt lat="50.801358260214329" lon="4.693859070539475">
        <ele>54.189999999999998</ele>
        <time>2020-11-11T13:48:32Z</time>
      </trkpt>
      <trkpt lat="50.801364379003644" lon="4.693811293691397">
        <ele>50.799999999999997</ele>
        <time>2020-11-11T13:48:34Z</time>
      </trkpt>
      <trkpt lat="50.801419196650386" lon="4.693686990067363">
        <ele>52.729999999999997</ele>
        <time>2020-11-11T13:48:44Z</time>
      </trkpt>
      <trkpt lat="50.801469823345542" lon="4.693516837432981">
        <ele>52.420000000000002</ele>
        <time>2020-11-11T13:48:55Z</time>
      </trkpt>
      <trkpt lat="50.801529502496123" lon="4.69343033619225">
        <ele>52.270000000000003</ele>
        <time>2020-11-11T13:49:00Z</time>
      </trkpt>
      <trkpt lat="50.801579207181931" lon="4.693376356735826">
        <ele>52.149999999999999</ele>
        <time>2020-11-11T13:49:04Z</time>
      </trkpt>
      <trkpt lat="50.801600078120828" lon="4.693352049216628">
        <ele>52.090000000000003</ele>
        <time>2020-11-11T13:49:06Z</time>
      </trkpt>
      <trkpt lat="50.80177660100162" lon="4.693130096420646">
        <ele>51.600000000000001</ele>
        <time>2020-11-11T13:49:23Z</time>
      </trkpt>
      <trkpt lat="50.801867544651031" lon="4.693076284602284">
        <ele>51.469999999999999</ele>
        <time>2020-11-11T13:49:29Z</time>
      </trkpt>
      <trkpt lat="50.802115816622972" lon="4.692992968484759">
        <ele>51.159999999999997</ele>
        <time>2020-11-11T13:49:43Z</time>
      </trkpt>
      <trkpt lat="50.802184632048011" lon="4.692986682057381">
        <ele>48.829999999999998</ele>
        <time>2020-11-11T13:49:47Z</time>
      </trkpt>
      <trkpt lat="50.802215980365872" lon="4.692988358438015">
        <ele>48.810000000000002</ele>
        <time>2020-11-11T13:49:49Z</time>
      </trkpt>
      <trkpt lat="50.802753176540136" lon="4.692425094544888">
        <ele>44.609999999999999</ele>
        <time>2020-11-11T13:50:38Z</time>
      </trkpt>
      <trkpt lat="50.802894830703735" lon="4.692195933312178">
        <ele>42.140000000000001</ele>
        <time>2020-11-11T13:50:53Z</time>
      </trkpt>
      <trkpt lat="50.803096583113074" lon="4.692030977457762">
        <ele>42.200000000000003</ele>
        <time>2020-11-11T13:51:11Z</time>
      </trkpt>
      <trkpt lat="50.80319507047534" lon="4.69192486256361">
        <ele>42.240000000000002</ele>
        <time>2020-11-11T13:51:30Z</time>
      </trkpt>
      <trkpt lat="50.803317194804549" lon="4.691720260307193">
        <ele>41.490000000000002</ele>
        <time>2020-11-11T13:51:44Z</time>
      </trkpt>
      <trkpt lat="50.80335876904428" lon="4.69159696251154">
        <ele>41.5</ele>
        <time>2020-11-11T13:51:49Z</time>
      </trkpt>
      <trkpt lat="50.80341107212007" lon="4.691501911729574">
        <ele>40</ele>
        <time>2020-11-11T13:51:56Z</time>
      </trkpt>
      <trkpt lat="50.803575860336423" lon="4.691293118521571">
        <ele>39.270000000000003</ele>
        <time>2020-11-11T13:52:10Z</time>
      </trkpt>
      <trkpt lat="50.803747018799186" lon="4.691080218181014">
        <ele>38.409999999999997</ele>
        <time>2020-11-11T13:52:25Z</time>
      </trkpt>
      <trkpt lat="50.803993195295334" lon="4.690760867670178">
        <ele>38.530000000000001</ele>
        <time>2020-11-11T13:52:44Z</time>
      </trkpt>
      <trkpt lat="50.804083552211523" lon="4.690396673977375">
        <ele>38.640000000000001</ele>
        <time>2020-11-11T13:53:00Z</time>
      </trkpt>
      <trkpt lat="50.804111212491989" lon="4.690140271559358">
        <ele>38.670000000000002</ele>
        <time>2020-11-11T13:53:09Z</time>
      </trkpt>
      <trkpt lat="50.804120600223541" lon="4.690116383135319">
        <ele>38.670000000000002</ele>
        <time>2020-11-11T13:53:10Z</time>
      </trkpt>
      <trkpt lat="50.804127808660269" lon="4.690093500539661">
        <ele>38.68</ele>
        <time>2020-11-11T13:53:11Z</time>
      </trkpt>
      <trkpt lat="50.804137364029884" lon="4.690072294324637">
        <ele>38.68</ele>
        <time>2020-11-11T13:53:12Z</time>
      </trkpt>
      <trkpt lat="50.80414641648531" lon="4.690026193857193">
        <ele>38.689999999999998</ele>
        <time>2020-11-11T13:53:13Z</time>
      </trkpt>
      <trkpt lat="50.804154966026545" lon="4.689997276291251">
        <ele>38.689999999999998</ele>
        <time>2020-11-11T13:53:14Z</time>
      </trkpt>
      <trkpt lat="50.804161000996828" lon="4.689971376210451">
        <ele>38.700000000000003</ele>
        <time>2020-11-11T13:53:15Z</time>
      </trkpt>
      <trkpt lat="50.804180866107345" lon="4.689905075356364">
        <ele>37.960000000000001</ele>
        <time>2020-11-11T13:53:18Z</time>
      </trkpt>
      <trkpt lat="50.804191427305341" lon="4.689884288236499">
        <ele>37.960000000000001</ele>
        <time>2020-11-11T13:53:19Z</time>
      </trkpt>
      <trkpt lat="50.804278096184134" lon="4.689868614077568">
        <ele>38.07</ele>
        <time>2020-11-11T13:53:33Z</time>
      </trkpt>
      <trkpt lat="50.804382702335715" lon="4.689846988767386">
        <ele>38.119999999999997</ele>
        <time>2020-11-11T13:53:43Z</time>
      </trkpt>
      <trkpt lat="50.804395023733377" lon="4.689842127263546">
        <ele>38.119999999999997</ele>
        <time>2020-11-11T13:53:44Z</time>
      </trkpt>
      <trkpt lat="50.804517734795809" lon="4.689767947420478">
        <ele>38.200000000000003</ele>
        <time>2020-11-11T13:53:55Z</time>
      </trkpt>
      <trkpt lat="50.804743375629187" lon="4.689700473099947">
        <ele>38.350000000000001</ele>
        <time>2020-11-11T13:54:16Z</time>
      </trkpt>
      <trkpt lat="50.804987205192447" lon="4.689651690423489">
        <ele>38.5</ele>
        <time>2020-11-11T13:54:36Z</time>
      </trkpt>
      <trkpt lat="50.805199854075909" lon="4.68959360383451">
        <ele>38.609999999999999</ele>
        <time>2020-11-11T13:54:49Z</time>
      </trkpt>
      <trkpt lat="50.805233297869563" lon="4.689576840028167">
        <ele>38.630000000000003</ele>
        <time>2020-11-11T13:54:51Z</time>
      </trkpt>
      <trkpt lat="50.805415352806449" lon="4.689533086493611">
        <ele>38.75</ele>
        <time>2020-11-11T13:55:03Z</time>
      </trkpt>
      <trkpt lat="50.805658427998424" lon="4.689480196684599">
        <ele>38.950000000000003</ele>
        <time>2020-11-11T13:55:17Z</time>
      </trkpt>
      <trkpt lat="50.805688267573714" lon="4.689471060410142">
        <ele>38.969999999999999</ele>
        <time>2020-11-11T13:55:19Z</time>
      </trkpt>
      <trkpt lat="50.805703438818455" lon="4.689465025439858">
        <ele>38.990000000000002</ele>
        <time>2020-11-11T13:55:20Z</time>
      </trkpt>
      <trkpt lat="50.80571785569191" lon="4.689456224441528">
        <ele>39.009999999999998</ele>
        <time>2020-11-11T13:55:21Z</time>
      </trkpt>
      <trkpt lat="50.805739564821124" lon="4.689437616616488">
        <ele>39.049999999999997</ele>
        <time>2020-11-11T13:55:23Z</time>
      </trkpt>
      <trkpt lat="50.80578189343214" lon="4.689405178651214">
        <ele>39.119999999999997</ele>
        <time>2020-11-11T13:55:27Z</time>
      </trkpt>
      <trkpt lat="50.805971743538976" lon="4.689323203638196">
        <ele>39.450000000000003</ele>
        <time>2020-11-11T13:55:44Z</time>
      </trkpt>
      <trkpt lat="50.806227056309581" lon="4.689319431781769">
        <ele>39.770000000000003</ele>
        <time>2020-11-11T13:56:02Z</time>
      </trkpt>
      <trkpt lat="50.806394442915916" lon="4.689244078472257">
        <ele>40.020000000000003</ele>
        <time>2020-11-11T13:56:16Z</time>
      </trkpt>
      <trkpt lat="50.806595860049129" lon="4.68921197578311">
        <ele>40.289999999999999</ele>
        <time>2020-11-11T13:56:31Z</time>
      </trkpt>
      <trkpt lat="50.806827619671822" lon="4.689164198935032">
        <ele>40.649999999999999</ele>
        <time>2020-11-11T13:56:49Z</time>
      </trkpt>
      <trkpt lat="50.806833570823073" lon="4.689144501462579">
        <ele>40.659999999999997</ele>
        <time>2020-11-11T13:56:50Z</time>
      </trkpt>
      <trkpt lat="50.806842790916562" lon="4.689126396551728">
        <ele>40.68</ele>
        <time>2020-11-11T13:56:51Z</time>
      </trkpt>
      <trkpt lat="50.806843545287848" lon="4.68910938128829">
        <ele>40.700000000000003</ele>
        <time>2020-11-11T13:56:52Z</time>
      </trkpt>
      <trkpt lat="50.806850334629416" lon="4.68909127637744">
        <ele>40.719999999999999</ele>
        <time>2020-11-11T13:56:53Z</time>
      </trkpt>
      <trkpt lat="50.806847903877497" lon="4.68906881287694">
        <ele>40.740000000000002</ele>
        <time>2020-11-11T13:56:54Z</time>
      </trkpt>
      <trkpt lat="50.806879587471485" lon="4.688944593071938">
        <ele>35.939999999999998</ele>
        <time>2020-11-11T13:57:01Z</time>
      </trkpt>
      <trkpt lat="50.806883778423071" lon="4.688926571980119">
        <ele>40.240000000000002</ele>
        <time>2020-11-11T13:57:02Z</time>
      </trkpt>
      <trkpt lat="50.806853016838431" lon="4.688657177612186">
        <ele>40.420000000000002</ele>
        <time>2020-11-11T13:57:14Z</time>
      </trkpt>
      <trkpt lat="50.806846981868148" lon="4.688636809587479">
        <ele>40.439999999999998</ele>
        <time>2020-11-11T13:57:15Z</time>
      </trkpt>
      <trkpt lat="50.806839941069484" lon="4.688393985852599">
        <ele>40.609999999999999</ele>
        <time>2020-11-11T13:57:27Z</time>
      </trkpt>
      <trkpt lat="50.80684220418334" lon="4.688242776319385">
        <ele>38.25</ele>
        <time>2020-11-11T13:57:35Z</time>
      </trkpt>
      <trkpt lat="50.806825859472156" lon="4.687893753871322">
        <ele>35.039999999999999</ele>
        <time>2020-11-11T13:57:52Z</time>
      </trkpt>
      <trkpt lat="50.80682460218668" lon="4.687687139958143">
        <ele>34.369999999999997</ele>
        <time>2020-11-11T13:58:00Z</time>
      </trkpt>
      <trkpt lat="50.806817477568984" lon="4.687655037268996">
        <ele>33.630000000000003</ele>
        <time>2020-11-11T13:58:01Z</time>
      </trkpt>
      <trkpt lat="50.806805156171322" lon="4.687630813568831">
        <ele>33.649999999999999</ele>
        <time>2020-11-11T13:58:02Z</time>
      </trkpt>
      <trkpt lat="50.806801971048117" lon="4.687605416402221">
        <ele>33.659999999999997</ele>
        <time>2020-11-11T13:58:03Z</time>
      </trkpt>
      <trkpt lat="50.806788560003042" lon="4.687523944303393">
        <ele>33.719999999999999</ele>
        <time>2020-11-11T13:58:07Z</time>
      </trkpt>
      <trkpt lat="50.806795349344611" lon="4.687301823869348">
        <ele>33.859999999999999</ele>
        <time>2020-11-11T13:58:17Z</time>
      </trkpt>
      <trkpt lat="50.806777747347951" lon="4.687004182487726">
        <ele>36.420000000000002</ele>
        <time>2020-11-11T13:58:30Z</time>
      </trkpt>
      <trkpt lat="50.806786296889186" lon="4.686882644891739">
        <ele>33.170000000000002</ele>
        <time>2020-11-11T13:58:35Z</time>
      </trkpt>
      <trkpt lat="50.806781854480505" lon="4.686846435070038">
        <ele>39</ele>
        <time>2020-11-11T13:58:36Z</time>
      </trkpt>
      <trkpt lat="50.806780178099871" lon="4.686803184449673">
        <ele>39.020000000000003</ele>
        <time>2020-11-11T13:58:37Z</time>
      </trkpt>
      <trkpt lat="50.806759223341942" lon="4.686610484495759">
        <ele>39.060000000000002</ele>
        <time>2020-11-11T13:58:44Z</time>
      </trkpt>
      <trkpt lat="50.806753858923912" lon="4.68658315949142">
        <ele>39.060000000000002</ele>
        <time>2020-11-11T13:58:45Z</time>
      </trkpt>
      <trkpt lat="50.806751092895865" lon="4.686558600515127">
        <ele>39.07</ele>
        <time>2020-11-11T13:58:46Z</time>
      </trkpt>
      <trkpt lat="50.806743716821074" lon="4.686535634100437">
        <ele>39.079999999999998</ele>
        <time>2020-11-11T13:58:47Z</time>
      </trkpt>
      <trkpt lat="50.806733323261142" lon="4.686517529189587">
        <ele>39.079999999999998</ele>
        <time>2020-11-11T13:58:48Z</time>
      </trkpt>
      <trkpt lat="50.806747237220407" lon="4.686288619413972">
        <ele>39.149999999999999</ele>
        <time>2020-11-11T13:59:01Z</time>
      </trkpt>
      <trkpt lat="50.806735837832093" lon="4.686207817867398">
        <ele>39.159999999999997</ele>
        <time>2020-11-11T13:59:05Z</time>
      </trkpt>
      <trkpt lat="50.806734412908554" lon="4.686162304133177">
        <ele>39.170000000000002</ele>
        <time>2020-11-11T13:59:07Z</time>
      </trkpt>
      <trkpt lat="50.80672787502408" lon="4.686140930280089">
        <ele>39.170000000000002</ele>
        <time>2020-11-11T13:59:08Z</time>
      </trkpt>
      <trkpt lat="50.80672150477767" lon="4.686116790398955">
        <ele>39.18</ele>
        <time>2020-11-11T13:59:09Z</time>
      </trkpt>
      <trkpt lat="50.806718235835433" lon="4.686091560870409">
        <ele>39.18</ele>
        <time>2020-11-11T13:59:10Z</time>
      </trkpt>
      <trkpt lat="50.806717816740274" lon="4.686021823436022">
        <ele>39.189999999999998</ele>
        <time>2020-11-11T13:59:13Z</time>
      </trkpt>
      <trkpt lat="50.806712536141276" lon="4.685997599735856">
        <ele>39.200000000000003</ele>
        <time>2020-11-11T13:59:14Z</time>
      </trkpt>
      <trkpt lat="50.806709602475166" lon="4.685977650806308">
        <ele>39.200000000000003</ele>
        <time>2020-11-11T13:59:15Z</time>
      </trkpt>
      <trkpt lat="50.806704573333263" lon="4.685953846201301">
        <ele>39.210000000000001</ele>
        <time>2020-11-11T13:59:16Z</time>
      </trkpt>
      <trkpt lat="50.806708596646786" lon="4.68593280762434">
        <ele>39.210000000000001</ele>
        <time>2020-11-11T13:59:17Z</time>
      </trkpt>
      <trkpt lat="50.806708848103881" lon="4.685910092666745">
        <ele>39.210000000000001</ele>
        <time>2020-11-11T13:59:18Z</time>
      </trkpt>
      <trkpt lat="50.806708261370659" lon="4.685890981927514">
        <ele>39.219999999999999</ele>
        <time>2020-11-11T13:59:19Z</time>
      </trkpt>
      <trkpt lat="50.806745560839772" lon="4.685529721900821">
        <ele>39.299999999999997</ele>
        <time>2020-11-11T13:59:37Z</time>
      </trkpt>
      <trkpt lat="50.806736424565315" lon="4.685245491564274">
        <ele>39.350000000000001</ele>
        <time>2020-11-11T13:59:50Z</time>
      </trkpt>
      <trkpt lat="50.806706249713898" lon="4.685059916228056">
        <ele>39.380000000000003</ele>
        <time>2020-11-11T13:59:57Z</time>
      </trkpt>
      <trkpt lat="50.806701136752963" lon="4.685038542374969">
        <ele>39.390000000000001</ele>
        <time>2020-11-11T13:59:58Z</time>
      </trkpt>
      <trkpt lat="50.806685462594032" lon="4.684918345883489">
        <ele>39.399999999999999</ele>
        <time>2020-11-11T14:00:02Z</time>
      </trkpt>
      <trkpt lat="50.806683953851461" lon="4.684846764430404">
        <ele>39.420000000000002</ele>
        <time>2020-11-11T14:00:05Z</time>
      </trkpt>
      <trkpt lat="50.806675488129258" lon="4.68480066396296">
        <ele>39.43</ele>
        <time>2020-11-11T14:00:07Z</time>
      </trkpt>
      <trkpt lat="50.806676410138607" lon="4.684675689786673">
        <ele>39.450000000000003</ele>
        <time>2020-11-11T14:00:12Z</time>
      </trkpt>
      <trkpt lat="50.806676996871829" lon="4.684582315385342">
        <ele>39.469999999999999</ele>
        <time>2020-11-11T14:00:16Z</time>
      </trkpt>
      <trkpt lat="50.806674901396036" lon="4.684558007866144">
        <ele>39.469999999999999</ele>
        <time>2020-11-11T14:00:17Z</time>
      </trkpt>
      <trkpt lat="50.806677248328924" lon="4.684533951804042">
        <ele>39.469999999999999</ele>
        <time>2020-11-11T14:00:18Z</time>
      </trkpt>
      <trkpt lat="50.80669853836298" lon="4.684333624318242">
        <ele>37.18</ele>
        <time>2020-11-11T14:00:28Z</time>
      </trkpt>
      <trkpt lat="50.8066785056144" lon="4.684004718437791">
        <ele>35.490000000000002</ele>
        <time>2020-11-11T14:00:44Z</time>
      </trkpt>
      <trkpt lat="50.806675823405385" lon="4.683838756754994">
        <ele>34.700000000000003</ele>
        <time>2020-11-11T14:00:50Z</time>
      </trkpt>
      <trkpt lat="50.806681774556637" lon="4.683737419545651">
        <ele>33.93</ele>
        <time>2020-11-11T14:00:54Z</time>
      </trkpt>
      <trkpt lat="50.806757463142276" lon="4.683553101494908">
        <ele>34.07</ele>
        <time>2020-11-11T14:01:11Z</time>
      </trkpt>
      <trkpt lat="50.806869277730584" lon="4.683501971885562">
        <ele>34.149999999999999</ele>
        <time>2020-11-11T14:01:22Z</time>
      </trkpt>
      <trkpt lat="50.807014955207705" lon="4.683529296889901">
        <ele>34.219999999999999</ele>
        <time>2020-11-11T14:01:34Z</time>
      </trkpt>
      <trkpt lat="50.807188712060452" lon="4.683527033776045">
        <ele>34.280000000000001</ele>
        <time>2020-11-11T14:01:45Z</time>
      </trkpt>
      <trkpt lat="50.807282757014036" lon="4.683550419285893">
        <ele>34.340000000000003</ele>
        <time>2020-11-11T14:01:57Z</time>
      </trkpt>
      <trkpt lat="50.807496830821037" lon="4.683575564995408">
        <ele>34.460000000000001</ele>
        <time>2020-11-11T14:02:14Z</time>
      </trkpt>
      <trkpt lat="50.807683411985636" lon="4.683615127578378">
        <ele>37.009999999999998</ele>
        <time>2020-11-11T14:02:26Z</time>
      </trkpt>
      <trkpt lat="50.807985160499811" lon="4.683645302429795">
        <ele>38</ele>
        <time>2020-11-11T14:02:40Z</time>
      </trkpt>
      <trkpt lat="50.808011144399643" lon="4.683643626049161">
        <ele>38.009999999999998</ele>
        <time>2020-11-11T14:02:41Z</time>
      </trkpt>
      <trkpt lat="50.808034278452396" lon="4.683647817000747">
        <ele>38.009999999999998</ele>
        <time>2020-11-11T14:02:42Z</time>
      </trkpt>
      <trkpt lat="50.808123126626015" lon="4.68364697881043">
        <ele>38.030000000000001</ele>
        <time>2020-11-11T14:02:46Z</time>
      </trkpt>
      <trkpt lat="50.80834424123168" lon="4.683632897213101">
        <ele>39.049999999999997</ele>
        <time>2020-11-11T14:02:57Z</time>
      </trkpt>
      <trkpt lat="50.808429652824998" lon="4.683621246367693">
        <ele>39.109999999999999</ele>
        <time>2020-11-11T14:03:02Z</time>
      </trkpt>
      <trkpt lat="50.808445075526834" lon="4.683617977425456">
        <ele>39.109999999999999</ele>
        <time>2020-11-11T14:03:03Z</time>
      </trkpt>
      <trkpt lat="50.808458235114813" lon="4.683620994910598">
        <ele>35.390000000000001</ele>
        <time>2020-11-11T14:03:05Z</time>
      </trkpt>
      <trkpt lat="50.808464605361223" lon="4.683618061244488">
        <ele>40.549999999999997</ele>
        <time>2020-11-11T14:03:06Z</time>
      </trkpt>
      <trkpt lat="50.808473573997617" lon="4.683617390692234">
        <ele>40.549999999999997</ele>
        <time>2020-11-11T14:03:07Z</time>
      </trkpt>
      <trkpt lat="50.808521350845695" lon="4.683657204732299">
        <ele>41.82</ele>
        <time>2020-11-11T14:03:15Z</time>
      </trkpt>
      <trkpt lat="50.808719582855701" lon="4.683658042922616">
        <ele>41.969999999999999</ele>
        <time>2020-11-11T14:03:29Z</time>
      </trkpt>
      <trkpt lat="50.808997191488743" lon="4.683708753436804">
        <ele>43.060000000000002</ele>
        <time>2020-11-11T14:03:48Z</time>
      </trkpt>
      <trkpt lat="50.809022169560194" lon="4.683707999065518">
        <ele>43.079999999999998</ele>
        <time>2020-11-11T14:03:51Z</time>
      </trkpt>
      <trkpt lat="50.80904639326036" lon="4.683701377362013">
        <ele>44.009999999999998</ele>
        <time>2020-11-11T14:03:54Z</time>
      </trkpt>
      <trkpt lat="50.809258120134473" lon="4.683714872226119">
        <ele>44.159999999999997</ele>
        <time>2020-11-11T14:04:14Z</time>
      </trkpt>
      <trkpt lat="50.809274632483721" lon="4.683709926903248">
        <ele>44.159999999999997</ele>
        <time>2020-11-11T14:04:15Z</time>
      </trkpt>
      <trkpt lat="50.809701271355152" lon="4.683659970760346">
        <ele>44.310000000000002</ele>
        <time>2020-11-11T14:04:36Z</time>
      </trkpt>
      <trkpt lat="50.809993715956807" lon="4.683684026822448">
        <ele>44.479999999999997</ele>
        <time>2020-11-11T14:04:55Z</time>
      </trkpt>
      <trkpt lat="50.810048617422581" lon="4.683653768151999">
        <ele>42.109999999999999</ele>
        <time>2020-11-11T14:05:00Z</time>
      </trkpt>
      <trkpt lat="50.810140734538436" lon="4.683657204732299">
        <ele>42.170000000000002</ele>
        <time>2020-11-11T14:05:07Z</time>
      </trkpt>
      <trkpt lat="50.810470730066299" lon="4.683747394010425">
        <ele>42.270000000000003</ele>
        <time>2020-11-11T14:05:20Z</time>
      </trkpt>
      <trkpt lat="50.810821680352092" lon="4.683774216100574">
        <ele>41.450000000000003</ele>
        <time>2020-11-11T14:05:32Z</time>
      </trkpt>
      <trkpt lat="50.81107615493238" lon="4.683772874996066">
        <ele>41.460000000000001</ele>
        <time>2020-11-11T14:05:41Z</time>
      </trkpt>
      <trkpt lat="50.811105156317353" lon="4.683783100917935">
        <ele>41.460000000000001</ele>
        <time>2020-11-11T14:05:42Z</time>
      </trkpt>
      <trkpt lat="50.811138348653913" lon="4.683795003220439">
        <ele>41.460000000000001</ele>
        <time>2020-11-11T14:05:43Z</time>
      </trkpt>
      <trkpt lat="50.811191741377115" lon="4.683798272162676">
        <ele>41.460000000000001</ele>
        <time>2020-11-11T14:05:44Z</time>
      </trkpt>
      <trkpt lat="50.81122032366693" lon="4.683806570246816">
        <ele>41.460000000000001</ele>
        <time>2020-11-11T14:05:45Z</time>
      </trkpt>
      <trkpt lat="50.811252593994141" lon="4.683812269940972">
        <ele>41.460000000000001</ele>
        <time>2020-11-11T14:05:46Z</time>
      </trkpt>
      <trkpt lat="50.81127111800015" lon="4.683823334053159">
        <ele>41.460000000000001</ele>
        <time>2020-11-11T14:05:47Z</time>
      </trkpt>
      <trkpt lat="50.811328701674938" lon="4.68383071012795">
        <ele>41.460000000000001</ele>
        <time>2020-11-11T14:05:49Z</time>
      </trkpt>
      <trkpt lat="50.811594324186444" lon="4.68383414670825">
        <ele>41.479999999999997</ele>
        <time>2020-11-11T14:06:01Z</time>
      </trkpt>
      <trkpt lat="50.811902023851871" lon="4.683833392336965">
        <ele>41.600000000000001</ele>
        <time>2020-11-11T14:06:18Z</time>
      </trkpt>
      <trkpt lat="50.812088437378407" lon="4.683870105072856">
        <ele>41.719999999999999</ele>
        <time>2020-11-11T14:06:31Z</time>
      </trkpt>
      <trkpt lat="50.812410721555352" lon="4.683888964354992">
        <ele>41.950000000000003</ele>
        <time>2020-11-11T14:06:51Z</time>
      </trkpt>
      <trkpt lat="50.812566122040153" lon="4.683900866657496">
        <ele>43.68</ele>
        <time>2020-11-11T14:07:04Z</time>
      </trkpt>
      <trkpt lat="50.812865439802408" lon="4.683926347643137">
        <ele>43.880000000000003</ele>
        <time>2020-11-11T14:07:23Z</time>
      </trkpt>
      <trkpt lat="50.81288849003613" lon="4.683924084529281">
        <ele>43.890000000000001</ele>
        <time>2020-11-11T14:07:24Z</time>
      </trkpt>
      <trkpt lat="50.812926711514592" lon="4.683917881920934">
        <ele>43.899999999999999</ele>
        <time>2020-11-11T14:07:25Z</time>
      </trkpt>
      <trkpt lat="50.812954120337963" lon="4.683924503624439">
        <ele>43.909999999999997</ele>
        <time>2020-11-11T14:07:26Z</time>
      </trkpt>
      <trkpt lat="50.81298622302711" lon="4.683928275480866">
        <ele>43.909999999999997</ele>
        <time>2020-11-11T14:07:27Z</time>
      </trkpt>
      <trkpt lat="50.813025115057826" lon="4.683927604928613">
        <ele>43.920000000000002</ele>
        <time>2020-11-11T14:07:28Z</time>
      </trkpt>
      <trkpt lat="50.813215551897883" lon="4.683925593271852">
        <ele>41.649999999999999</ele>
        <time>2020-11-11T14:07:33Z</time>
      </trkpt>
      <trkpt lat="50.813510930165648" lon="4.683837750926614">
        <ele>41.719999999999999</ele>
        <time>2020-11-11T14:07:42Z</time>
      </trkpt>
      <trkpt lat="50.81352761015296" lon="4.683828363195062">
        <ele>41.719999999999999</ele>
        <time>2020-11-11T14:07:43Z</time>
      </trkpt>
      <trkpt lat="50.813542446121573" lon="4.683829704299569">
        <ele>41.740000000000002</ele>
        <time>2020-11-11T14:07:44Z</time>
      </trkpt>
      <trkpt lat="50.813561724498868" lon="4.683831045404077">
        <ele>41.75</ele>
        <time>2020-11-11T14:07:45Z</time>
      </trkpt>
      <trkpt lat="50.813577985391021" lon="4.683833224698901">
        <ele>41.729999999999997</ele>
        <time>2020-11-11T14:07:46Z</time>
      </trkpt>
      <trkpt lat="50.813595252111554" lon="4.683834817260504">
        <ele>41.75</ele>
        <time>2020-11-11T14:07:47Z</time>
      </trkpt>
      <trkpt lat="50.81363364122808" lon="4.683832889422774">
        <ele>41.770000000000003</ele>
        <time>2020-11-11T14:07:48Z</time>
      </trkpt>
      <trkpt lat="50.813672700896859" lon="4.683832805603743">
        <ele>41.770000000000003</ele>
        <time>2020-11-11T14:07:49Z</time>
      </trkpt>
      <trkpt lat="50.813701450824738" lon="4.683835403993726">
        <ele>41.780000000000001</ele>
        <time>2020-11-11T14:07:50Z</time>
      </trkpt>
      <trkpt lat="50.813731206580997" lon="4.683840936049819">
        <ele>41.799999999999997</ele>
        <time>2020-11-11T14:07:51Z</time>
      </trkpt>
      <trkpt lat="50.813759369775653" lon="4.683835990726948">
        <ele>41.799999999999997</ele>
        <time>2020-11-11T14:07:52Z</time>
      </trkpt>
      <trkpt lat="50.813785521313548" lon="4.683822160586715">
        <ele>41.810000000000002</ele>
        <time>2020-11-11T14:07:53Z</time>
      </trkpt>
      <trkpt lat="50.813813181594014" lon="4.683811934664846">
        <ele>41.82</ele>
        <time>2020-11-11T14:07:54Z</time>
      </trkpt>
      <trkpt lat="50.813847547397017" lon="4.683806151151657">
        <ele>41.829999999999998</ele>
        <time>2020-11-11T14:07:55Z</time>
      </trkpt>
      <trkpt lat="50.81388040445745" lon="4.683798104524612">
        <ele>41.829999999999998</ele>
        <time>2020-11-11T14:07:56Z</time>
      </trkpt>
      <trkpt lat="50.813902951776981" lon="4.683784861117601">
        <ele>41.829999999999998</ele>
        <time>2020-11-11T14:07:57Z</time>
      </trkpt>
      <trkpt lat="50.813931450247765" lon="4.683771366253495">
        <ele>41.840000000000003</ele>
        <time>2020-11-11T14:07:58Z</time>
      </trkpt>
      <trkpt lat="50.813958691433072" lon="4.683754770085216">
        <ele>41.840000000000003</ele>
        <time>2020-11-11T14:07:59Z</time>
      </trkpt>
      <trkpt lat="50.813991213217378" lon="4.683744795620441">
        <ele>41.850000000000001</ele>
        <time>2020-11-11T14:08:00Z</time>
      </trkpt>
      <trkpt lat="50.814016694203019" lon="4.683740185573697">
        <ele>41.859999999999999</ele>
        <time>2020-11-11T14:08:01Z</time>
      </trkpt>
      <trkpt lat="50.814085174351931" lon="4.683710345998406">
        <ele>41.869999999999997</ele>
        <time>2020-11-11T14:08:04Z</time>
      </trkpt>
      <trkpt lat="50.814098753035069" lon="4.683706071227789">
        <ele>41.869999999999997</ele>
        <time>2020-11-11T14:08:05Z</time>
      </trkpt>
      <trkpt lat="50.814120881259441" lon="4.683699868619442">
        <ele>41.899999999999999</ele>
        <time>2020-11-11T14:08:07Z</time>
      </trkpt>
      <trkpt lat="50.814318777993321" lon="4.683709675446153">
        <ele>41.920000000000002</ele>
        <time>2020-11-11T14:08:17Z</time>
      </trkpt>
      <trkpt lat="50.814659921452403" lon="4.683628203347325">
        <ele>41.939999999999998</ele>
        <time>2020-11-11T14:08:27Z</time>
      </trkpt>
      <trkpt lat="50.815009698271751" lon="4.68356148339808">
        <ele>41.920000000000002</ele>
        <time>2020-11-11T14:08:38Z</time>
      </trkpt>
      <trkpt lat="50.815125955268741" lon="4.68354094773531">
        <ele>40.57</ele>
        <time>2020-11-11T14:08:46Z</time>
      </trkpt>
      <trkpt lat="50.815198794007301" lon="4.683518987149">
        <ele>37.469999999999999</ele>
        <time>2020-11-11T14:08:50Z</time>
      </trkpt>
      <trkpt lat="50.815212540328503" lon="4.683517897501588">
        <ele>42.719999999999999</ele>
        <time>2020-11-11T14:08:51Z</time>
      </trkpt>
      <trkpt lat="50.815229471772909" lon="4.683516724035144">
        <ele>42.719999999999999</ele>
        <time>2020-11-11T14:08:52Z</time>
      </trkpt>
      <trkpt lat="50.815322175621986" lon="4.683495434001088">
        <ele>42.659999999999997</ele>
        <time>2020-11-11T14:08:56Z</time>
      </trkpt>
      <trkpt lat="50.815377999097109" lon="4.683451009914279">
        <ele>42.640000000000001</ele>
        <time>2020-11-11T14:09:00Z</time>
      </trkpt>
      <trkpt lat="50.815391074866056" lon="4.683416811749339">
        <ele>42.649999999999999</ele>
        <time>2020-11-11T14:09:02Z</time>
      </trkpt>
      <trkpt lat="50.815394511446357" lon="4.683391666039825">
        <ele>42.670000000000002</ele>
        <time>2020-11-11T14:09:03Z</time>
      </trkpt>
      <trkpt lat="50.81539467908442" lon="4.683368615806103">
        <ele>42.68</ele>
        <time>2020-11-11T14:09:04Z</time>
      </trkpt>
      <trkpt lat="50.815543625503778" lon="4.683104921132326">
        <ele>42.640000000000001</ele>
        <time>2020-11-11T14:09:17Z</time>
      </trkpt>
      <trkpt lat="50.815523006021976" lon="4.683011462911964">
        <ele>40.170000000000002</ele>
        <time>2020-11-11T14:09:22Z</time>
      </trkpt>
      <trkpt lat="50.815434409305453" lon="4.682626901194453">
        <ele>40.369999999999997</ele>
        <time>2020-11-11T14:09:41Z</time>
      </trkpt>
      <trkpt lat="50.815309267491102" lon="4.682079646736383">
        <ele>40.450000000000003</ele>
        <time>2020-11-11T14:10:02Z</time>
      </trkpt>
      <trkpt lat="50.815311279147863" lon="4.681846797466278">
        <ele>40.5</ele>
        <time>2020-11-11T14:10:12Z</time>
      </trkpt>
      <trkpt lat="50.815262412652373" lon="4.681473216041923">
        <ele>39.5</ele>
        <time>2020-11-11T14:10:25Z</time>
      </trkpt>
      <trkpt lat="50.815242798998952" lon="4.681322928518057">
        <ele>39.520000000000003</ele>
        <time>2020-11-11T14:10:30Z</time>
      </trkpt>
      <trkpt lat="50.815231986343861" lon="4.681281186640263">
        <ele>39.520000000000003</ele>
        <time>2020-11-11T14:10:32Z</time>
      </trkpt>
      <trkpt lat="50.815220084041357" lon="4.681262914091349">
        <ele>39.539999999999999</ele>
        <time>2020-11-11T14:10:33Z</time>
      </trkpt>
      <trkpt lat="50.815210277214646" lon="4.681235756725073">
        <ele>39.539999999999999</ele>
        <time>2020-11-11T14:10:34Z</time>
      </trkpt>
      <trkpt lat="50.815197369083762" lon="4.681207509711385">
        <ele>39.530000000000001</ele>
        <time>2020-11-11T14:10:35Z</time>
      </trkpt>
      <trkpt lat="50.815185802057385" lon="4.681160068139434">
        <ele>39.549999999999997</ele>
        <time>2020-11-11T14:10:37Z</time>
      </trkpt>
      <trkpt lat="50.815173145383596" lon="4.681140454486013">
        <ele>39.530000000000001</ele>
        <time>2020-11-11T14:10:38Z</time>
      </trkpt>
      <trkpt lat="50.81517381593585" lon="4.681109776720405">
        <ele>39.539999999999999</ele>
        <time>2020-11-11T14:10:39Z</time>
      </trkpt>
      <trkpt lat="50.815148586407304" lon="4.68100936152041">
        <ele>39.539999999999999</ele>
        <time>2020-11-11T14:10:43Z</time>
      </trkpt>
      <trkpt lat="50.815128218382597" lon="4.680898133665323">
        <ele>39.549999999999997</ele>
        <time>2020-11-11T14:10:48Z</time>
      </trkpt>
      <trkpt lat="50.815123692154884" lon="4.68083493411541">
        <ele>39.549999999999997</ele>
        <time>2020-11-11T14:10:52Z</time>
      </trkpt>
      <trkpt lat="50.815125117078424" lon="4.680802077054977">
        <ele>39.560000000000002</ele>
        <time>2020-11-11T14:10:53Z</time>
      </trkpt>
      <trkpt lat="50.815120507031679" lon="4.680778775364161">
        <ele>39.57</ele>
        <time>2020-11-11T14:10:54Z</time>
      </trkpt>
      <trkpt lat="50.815069042146206" lon="4.68051927164197">
        <ele>39.619999999999997</ele>
        <time>2020-11-11T14:11:07Z</time>
      </trkpt>
      <trkpt lat="50.814955802634358" lon="4.680104870349169">
        <ele>39.710000000000001</ele>
        <time>2020-11-11T14:11:26Z</time>
      </trkpt>
      <trkpt lat="50.814856979995966" lon="4.679648727178574">
        <ele>39.719999999999999</ele>
        <time>2020-11-11T14:11:42Z</time>
      </trkpt>
      <trkpt lat="50.814828146249056" lon="4.679372124373913">
        <ele>39.719999999999999</ele>
        <time>2020-11-11T14:11:46Z</time>
      </trkpt>
      <trkpt lat="50.814818674698472" lon="4.679293753579259">
        <ele>39.719999999999999</ele>
        <time>2020-11-11T14:11:47Z</time>
      </trkpt>
      <trkpt lat="50.81478875130415" lon="4.679112704470754">
        <ele>39.719999999999999</ele>
        <time>2020-11-11T14:11:49Z</time>
      </trkpt>
      <trkpt lat="50.814736196771264" lon="4.678926793858409">
        <ele>38.909999999999997</ele>
        <time>2020-11-11T14:11:51Z</time>
      </trkpt>
      <trkpt lat="50.814717169851065" lon="4.678836520761251">
        <ele>38.920000000000002</ele>
        <time>2020-11-11T14:11:52Z</time>
      </trkpt>
      <trkpt lat="50.814661346375942" lon="4.678585231304169">
        <ele>38.920000000000002</ele>
        <time>2020-11-11T14:11:55Z</time>
      </trkpt>
      <trkpt lat="50.81464952789247" lon="4.678524378687143">
        <ele>38.950000000000003</ele>
        <time>2020-11-11T14:11:56Z</time>
      </trkpt>
      <trkpt lat="50.81463385373354" lon="4.678482217714191">
        <ele>38.960000000000001</ele>
        <time>2020-11-11T14:11:57Z</time>
      </trkpt>
      <trkpt lat="50.814595129340887" lon="4.678283398970962">
        <ele>38.990000000000002</ele>
        <time>2020-11-11T14:12:01Z</time>
      </trkpt>
      <trkpt lat="50.814582137390971" lon="4.678240483626723">
        <ele>39.009999999999998</ele>
        <time>2020-11-11T14:12:02Z</time>
      </trkpt>
      <trkpt lat="50.814571995288134" lon="4.678221959620714">
        <ele>39.020000000000003</ele>
        <time>2020-11-11T14:12:03Z</time>
      </trkpt>
      <trkpt lat="50.814565038308501" lon="4.678197065368295">
        <ele>39.009999999999998</ele>
        <time>2020-11-11T14:12:04Z</time>
      </trkpt>
      <trkpt lat="50.814549447968602" lon="4.678156413137913">
        <ele>39.009999999999998</ele>
        <time>2020-11-11T14:12:05Z</time>
      </trkpt>
      <trkpt lat="50.814533438533545" lon="4.678097739815712">
        <ele>39.009999999999998</ele>
        <time>2020-11-11T14:12:06Z</time>
      </trkpt>
      <trkpt lat="50.814519105479121" lon="4.678026912733913">
        <ele>38.979999999999997</ele>
        <time>2020-11-11T14:12:07Z</time>
      </trkpt>
      <trkpt lat="50.814499324187636" lon="4.677920294925571">
        <ele>38.979999999999997</ele>
        <time>2020-11-11T14:12:08Z</time>
      </trkpt>
      <trkpt lat="50.814480129629374" lon="4.67782692052424">
        <ele>39.009999999999998</ele>
        <time>2020-11-11T14:12:09Z</time>
      </trkpt>
      <trkpt lat="50.814469316974282" lon="4.67775022611022">
        <ele>39</ele>
        <time>2020-11-11T14:12:10Z</time>
      </trkpt>
      <trkpt lat="50.814453810453415" lon="4.67767646536231">
        <ele>39.020000000000003</ele>
        <time>2020-11-11T14:12:11Z</time>
      </trkpt>
      <trkpt lat="50.814429670572281" lon="4.677524417638779">
        <ele>39.009999999999998</ele>
        <time>2020-11-11T14:12:13Z</time>
      </trkpt>
      <trkpt lat="50.814430257305503" lon="4.677450824528933">
        <ele>38.990000000000002</ele>
        <time>2020-11-11T14:12:14Z</time>
      </trkpt>
      <trkpt lat="50.81442279741168" lon="4.677381254732609">
        <ele>38.990000000000002</ele>
        <time>2020-11-11T14:12:15Z</time>
      </trkpt>
      <trkpt lat="50.814392790198326" lon="4.677205486223102">
        <ele>39</ele>
        <time>2020-11-11T14:12:17Z</time>
      </trkpt>
      <trkpt lat="50.814347444102168" lon="4.677033238112927">
        <ele>38.939999999999998</ele>
        <time>2020-11-11T14:12:19Z</time>
      </trkpt>
      <trkpt lat="50.814331015571952" lon="4.67695620842278">
        <ele>38.950000000000003</ele>
        <time>2020-11-11T14:12:20Z</time>
      </trkpt>
      <trkpt lat="50.814213752746582" lon="4.676478104665875">
        <ele>38.950000000000003</ele>
        <time>2020-11-11T14:12:26Z</time>
      </trkpt>
      <trkpt lat="50.814196318387985" lon="4.676416581496596">
        <ele>38.189999999999998</ele>
        <time>2020-11-11T14:12:27Z</time>
      </trkpt>
      <trkpt lat="50.814182907342911" lon="4.676331505179405">
        <ele>38.189999999999998</ele>
        <time>2020-11-11T14:12:28Z</time>
      </trkpt>
      <trkpt lat="50.81415893509984" lon="4.67624869197607">
        <ele>38.210000000000001</ele>
        <time>2020-11-11T14:12:29Z</time>
      </trkpt>
      <trkpt lat="50.814132867380977" lon="4.676172500476241">
        <ele>38.219999999999999</ele>
        <time>2020-11-11T14:12:30Z</time>
      </trkpt>
      <trkpt lat="50.814099507406354" lon="4.676045849919319">
        <ele>38.219999999999999</ele>
        <time>2020-11-11T14:12:32Z</time>
      </trkpt>
      <trkpt lat="50.81407779827714" lon="4.675968820229173">
        <ele>38.25</ele>
        <time>2020-11-11T14:12:33Z</time>
      </trkpt>
      <trkpt lat="50.813953410834074" lon="4.675381584092975">
        <ele>38.25</ele>
        <time>2020-11-11T14:12:43Z</time>
      </trkpt>
      <trkpt lat="50.813877554610372" lon="4.675199529156089">
        <ele>38.270000000000003</ele>
        <time>2020-11-11T14:12:46Z</time>
      </trkpt>
      <trkpt lat="50.813869507983327" lon="4.67509894631803">
        <ele>38.259999999999998</ele>
        <time>2020-11-11T14:12:47Z</time>
      </trkpt>
      <trkpt lat="50.813857102766633" lon="4.675018144771457">
        <ele>38.280000000000001</ele>
        <time>2020-11-11T14:12:48Z</time>
      </trkpt>
      <trkpt lat="50.813860120251775" lon="4.674904989078641">
        <ele>38.289999999999999</ele>
        <time>2020-11-11T14:12:49Z</time>
      </trkpt>
      <trkpt lat="50.813856851309538" lon="4.674807423725724">
        <ele>38.280000000000001</ele>
        <time>2020-11-11T14:12:50Z</time>
      </trkpt>
      <trkpt lat="50.813847379758954" lon="4.674555044621229">
        <ele>38.280000000000001</ele>
        <time>2020-11-11T14:12:53Z</time>
      </trkpt>
      <trkpt lat="50.813729027286172" lon="4.67388859950006">
        <ele>37.399999999999999</ele>
        <time>2020-11-11T14:13:03Z</time>
      </trkpt>
      <trkpt lat="50.813709497451782" lon="4.673817018046975">
        <ele>37.380000000000003</ele>
        <time>2020-11-11T14:13:04Z</time>
      </trkpt>
      <trkpt lat="50.813687285408378" lon="4.673750465735793">
        <ele>37.409999999999997</ele>
        <time>2020-11-11T14:13:05Z</time>
      </trkpt>
      <trkpt lat="50.81367370672524" lon="4.67370143160224">
        <ele>37.409999999999997</ele>
        <time>2020-11-11T14:13:06Z</time>
      </trkpt>
      <trkpt lat="50.813664151355624" lon="4.673592718318105">
        <ele>37.409999999999997</ele>
        <time>2020-11-11T14:13:07Z</time>
      </trkpt>
      <trkpt lat="50.813550157472491" lon="4.672958292067051">
        <ele>36.57</ele>
        <time>2020-11-11T14:13:18Z</time>
      </trkpt>
      <trkpt lat="50.813502548262477" lon="4.672837089747191">
        <ele>36.609999999999999</ele>
        <time>2020-11-11T14:13:20Z</time>
      </trkpt>
      <trkpt lat="50.813445886597037" lon="4.672494940459728">
        <ele>35.75</ele>
        <time>2020-11-11T14:13:25Z</time>
      </trkpt>
      <trkpt lat="50.813428200781345" lon="4.672409864142537">
        <ele>35.75</ele>
        <time>2020-11-11T14:13:26Z</time>
      </trkpt>
      <trkpt lat="50.813418561592698" lon="4.672333085909486">
        <ele>35.740000000000002</ele>
        <time>2020-11-11T14:13:27Z</time>
      </trkpt>
      <trkpt lat="50.8133839443326" lon="4.67197903431952">
        <ele>34.920000000000002</ele>
        <time>2020-11-11T14:13:31Z</time>
      </trkpt>
      <trkpt lat="50.813348572701216" lon="4.671724308282137">
        <ele>34.920000000000002</ele>
        <time>2020-11-11T14:13:34Z</time>
      </trkpt>
      <trkpt lat="50.813336418941617" lon="4.671633951365948">
        <ele>34.950000000000003</ele>
        <time>2020-11-11T14:13:35Z</time>
      </trkpt>
      <trkpt lat="50.813290569931269" lon="4.671430187299848">
        <ele>34.950000000000003</ele>
        <time>2020-11-11T14:13:38Z</time>
      </trkpt>
      <trkpt lat="50.81326911225915" lon="4.671364389359951">
        <ele>34.899999999999999</ele>
        <time>2020-11-11T14:13:39Z</time>
      </trkpt>
      <trkpt lat="50.813145395368338" lon="4.670740691944957">
        <ele>34.960000000000001</ele>
        <time>2020-11-11T14:13:46Z</time>
      </trkpt>
      <trkpt lat="50.813151095062494" lon="4.670675313100219">
        <ele>34.990000000000002</ele>
        <time>2020-11-11T14:13:47Z</time>
      </trkpt>
      <trkpt lat="50.813126116991043" lon="4.670627033337951">
        <ele>35</ele>
        <time>2020-11-11T14:13:48Z</time>
      </trkpt>
      <trkpt lat="50.813098540529609" lon="4.670578669756651">
        <ele>35.009999999999998</ele>
        <time>2020-11-11T14:13:49Z</time>
      </trkpt>
      <trkpt lat="50.813071299344301" lon="4.670510860159993">
        <ele>35.020000000000003</ele>
        <time>2020-11-11T14:13:50Z</time>
      </trkpt>
      <trkpt lat="50.813047662377357" lon="4.670442631468177">
        <ele>35.020000000000003</ele>
        <time>2020-11-11T14:13:51Z</time>
      </trkpt>
      <trkpt lat="50.812911624088883" lon="4.6698715724051">
        <ele>34.960000000000001</ele>
        <time>2020-11-11T14:13:58Z</time>
      </trkpt>
      <trkpt lat="50.81289192661643" lon="4.669782724231482">
        <ele>34.939999999999998</ele>
        <time>2020-11-11T14:13:59Z</time>
      </trkpt>
      <trkpt lat="50.812878264114261" lon="4.669694630429149">
        <ele>34.920000000000002</ele>
        <time>2020-11-11T14:14:00Z</time>
      </trkpt>
      <trkpt lat="50.81274583004415" lon="4.669017540290952">
        <ele>34.82</ele>
        <time>2020-11-11T14:14:09Z</time>
      </trkpt>
      <trkpt lat="50.812721187248826" lon="4.668946797028184">
        <ele>34.810000000000002</ele>
        <time>2020-11-11T14:14:10Z</time>
      </trkpt>
      <trkpt lat="50.81270576454699" lon="4.668846968561411">
        <ele>34.789999999999999</ele>
        <time>2020-11-11T14:14:11Z</time>
      </trkpt>
      <trkpt lat="50.812686234712601" lon="4.668757701292634">
        <ele>34.770000000000003</ele>
        <time>2020-11-11T14:14:12Z</time>
      </trkpt>
      <trkpt lat="50.812668213620782" lon="4.668685449287295">
        <ele>34.770000000000003</ele>
        <time>2020-11-11T14:14:13Z</time>
      </trkpt>
      <trkpt lat="50.81256209872663" lon="4.668167363852263">
        <ele>34.759999999999998</ele>
        <time>2020-11-11T14:14:19Z</time>
      </trkpt>
      <trkpt lat="50.812548687681556" lon="4.668075498193502">
        <ele>34.740000000000002</ele>
        <time>2020-11-11T14:14:20Z</time>
      </trkpt>
      <trkpt lat="50.812531923875213" lon="4.667974496260285">
        <ele>34.729999999999997</ele>
        <time>2020-11-11T14:14:21Z</time>
      </trkpt>
      <trkpt lat="50.812487415969372" lon="4.667798476293683">
        <ele>34.710000000000001</ele>
        <time>2020-11-11T14:14:23Z</time>
      </trkpt>
      <trkpt lat="50.812464030459523" lon="4.667714908719063">
        <ele>34.700000000000003</ele>
        <time>2020-11-11T14:14:24Z</time>
      </trkpt>
      <trkpt lat="50.812437711283565" lon="4.667564034461975">
        <ele>34.700000000000003</ele>
        <time>2020-11-11T14:14:26Z</time>
      </trkpt>
      <trkpt lat="50.812358167022467" lon="4.667140999808908">
        <ele>34.630000000000003</ele>
        <time>2020-11-11T14:14:32Z</time>
      </trkpt>
      <trkpt lat="50.81232170574367" lon="4.666994651779532">
        <ele>34.600000000000001</ele>
        <time>2020-11-11T14:14:34Z</time>
      </trkpt>
      <trkpt lat="50.812309635803103" lon="4.666929189115763">
        <ele>34.57</ele>
        <time>2020-11-11T14:14:35Z</time>
      </trkpt>
      <trkpt lat="50.812226738780737" lon="4.666378162801266">
        <ele>34.5</ele>
        <time>2020-11-11T14:14:44Z</time>
      </trkpt>
      <trkpt lat="50.81221709959209" lon="4.666312197223306">
        <ele>34.490000000000002</ele>
        <time>2020-11-11T14:14:45Z</time>
      </trkpt>
      <trkpt lat="50.812212489545345" lon="4.666272550821304">
        <ele>34.490000000000002</ele>
        <time>2020-11-11T14:14:46Z</time>
      </trkpt>
      <trkpt lat="50.812217518687248" lon="4.66623567044735">
        <ele>34.450000000000003</ele>
        <time>2020-11-11T14:14:47Z</time>
      </trkpt>
      <trkpt lat="50.812181644141674" lon="4.666043389588594">
        <ele>34.420000000000002</ele>
        <time>2020-11-11T14:14:51Z</time>
      </trkpt>
      <trkpt lat="50.812145685777068" lon="4.665886731818318">
        <ele>34.380000000000003</ele>
        <time>2020-11-11T14:14:55Z</time>
      </trkpt>
      <trkpt lat="50.812140069901943" lon="4.665844822302461">
        <ele>34.369999999999997</ele>
        <time>2020-11-11T14:14:56Z</time>
      </trkpt>
      <trkpt lat="50.812121042981744" lon="4.665752537548542">
        <ele>34.350000000000001</ele>
        <time>2020-11-11T14:14:59Z</time>
      </trkpt>
      <trkpt lat="50.812102351337671" lon="4.665682883933187">
        <ele>34.340000000000003</ele>
        <time>2020-11-11T14:15:00Z</time>
      </trkpt>
      <trkpt lat="50.81209497526288" lon="4.665530668571591">
        <ele>34.299999999999997</ele>
        <time>2020-11-11T14:15:06Z</time>
      </trkpt>
      <trkpt lat="50.812114840373397" lon="4.665509965270758">
        <ele>34.289999999999999</ele>
        <time>2020-11-11T14:15:07Z</time>
      </trkpt>
      <trkpt lat="50.812140656635165" lon="4.66541675850749">
        <ele>34.200000000000003</ele>
        <time>2020-11-11T14:15:15Z</time>
      </trkpt>
      <trkpt lat="50.812182063236833" lon="4.665371999144554">
        <ele>34.210000000000001</ele>
        <time>2020-11-11T14:15:19Z</time>
      </trkpt>
      <trkpt lat="50.812256410717964" lon="4.665334699675441">
        <ele>32.560000000000002</ele>
        <time>2020-11-11T14:15:32Z</time>
      </trkpt>
      <trkpt lat="50.812275018543005" lon="4.665323467925191">
        <ele>31.809999999999999</ele>
        <time>2020-11-11T14:15:33Z</time>
      </trkpt>
      <trkpt lat="50.812378115952015" lon="4.665288347750902">
        <ele>31.079999999999998</ele>
        <time>2020-11-11T14:15:40Z</time>
      </trkpt>
      <trkpt lat="50.812399405986071" lon="4.665273930877447">
        <ele>30.969999999999999</ele>
        <time>2020-11-11T14:15:41Z</time>
      </trkpt>
      <trkpt lat="50.81240326166153" lon="4.665268063545227">
        <ele>30.98</ele>
        <time>2020-11-11T14:15:42Z</time>
      </trkpt>
      <trkpt lat="50.812441986054182" lon="4.665246857330203">
        <ele>30.969999999999999</ele>
        <time>2020-11-11T14:15:44Z</time>
      </trkpt>
      <trkpt lat="50.812634769827127" lon="4.665194470435381">
        <ele>31.059999999999999</ele>
        <time>2020-11-11T14:15:55Z</time>
      </trkpt>
      <trkpt lat="50.812734263017774" lon="4.665168821811676">
        <ele>31.100000000000001</ele>
        <time>2020-11-11T14:16:05Z</time>
      </trkpt>
      <trkpt lat="50.812803078442812" lon="4.66517049819231">
        <ele>31.09</ele>
        <time>2020-11-11T14:16:11Z</time>
      </trkpt>
      <trkpt lat="50.812821434810758" lon="4.665162535384297">
        <ele>31.100000000000001</ele>
        <time>2020-11-11T14:16:12Z</time>
      </trkpt>
      <trkpt lat="50.812857644632459" lon="4.66516169719398">
        <ele>33.359999999999999</ele>
        <time>2020-11-11T14:16:14Z</time>
      </trkpt>
      <trkpt lat="50.812989994883537" lon="4.665156835690141">
        <ele>34.060000000000002</ele>
        <time>2020-11-11T14:16:25Z</time>
      </trkpt>
      <trkpt lat="50.813029473647475" lon="4.665162451565266">
        <ele>34</ele>
        <time>2020-11-11T14:16:34Z</time>
      </trkpt>
      <trkpt lat="50.813064929097891" lon="4.665136383846402">
        <ele>33.969999999999999</ele>
        <time>2020-11-11T14:16:38Z</time>
      </trkpt>
      <trkpt lat="50.813075741752982" lon="4.665130684152246">
        <ele>33.960000000000001</ele>
        <time>2020-11-11T14:16:39Z</time>
      </trkpt>
      <trkpt lat="50.813092924654484" lon="4.665130600333214">
        <ele>33.939999999999998</ele>
        <time>2020-11-11T14:16:41Z</time>
      </trkpt>
      <trkpt lat="50.813127709552646" lon="4.665124984458089">
        <ele>34.719999999999999</ele>
        <time>2020-11-11T14:16:43Z</time>
      </trkpt>
      <trkpt lat="50.813199039548635" lon="4.665104867890477">
        <ele>34.689999999999998</ele>
        <time>2020-11-11T14:16:47Z</time>
      </trkpt>
      <trkpt lat="50.813333820551634" lon="4.665051642805338">
        <ele>34.619999999999997</ele>
        <time>2020-11-11T14:16:56Z</time>
      </trkpt>
      <trkpt lat="50.813350584357977" lon="4.665046026930213">
        <ele>34.619999999999997</ele>
        <time>2020-11-11T14:16:57Z</time>
      </trkpt>
      <trkpt lat="50.813381345942616" lon="4.665027670562267">
        <ele>34.619999999999997</ele>
        <time>2020-11-11T14:16:58Z</time>
      </trkpt>
      <trkpt lat="50.813394170254469" lon="4.665024233981967">
        <ele>34.609999999999999</ele>
        <time>2020-11-11T14:16:59Z</time>
      </trkpt>
      <trkpt lat="50.81342258490622" lon="4.66501752845943">
        <ele>34.590000000000003</ele>
        <time>2020-11-11T14:17:00Z</time>
      </trkpt>
      <trkpt lat="50.813535237684846" lon="4.665030939504504">
        <ele>34.520000000000003</ele>
        <time>2020-11-11T14:17:10Z</time>
      </trkpt>
      <trkpt lat="50.813567591831088" lon="4.665041416883469">
        <ele>34.5</ele>
        <time>2020-11-11T14:17:13Z</time>
      </trkpt>
      <trkpt lat="50.813616374507546" lon="4.665065556764603">
        <ele>34.420000000000002</ele>
        <time>2020-11-11T14:17:22Z</time>
      </trkpt>
      <trkpt lat="50.813813600689173" lon="4.665045440196991">
        <ele>35.100000000000001</ele>
        <time>2020-11-11T14:17:34Z</time>
      </trkpt>
      <trkpt lat="50.81391703337431" lon="4.665000764653087">
        <ele>35.039999999999999</ele>
        <time>2020-11-11T14:17:42Z</time>
      </trkpt>
      <trkpt lat="50.813935725018382" lon="4.664996238425374">
        <ele>35.039999999999999</ele>
        <time>2020-11-11T14:17:43Z</time>
      </trkpt>
      <trkpt lat="50.813971851021051" lon="4.664993220940232">
        <ele>35.020000000000003</ele>
        <time>2020-11-11T14:17:45Z</time>
      </trkpt>
      <trkpt lat="50.814037648960948" lon="4.6650156006217">
        <ele>34.950000000000003</ele>
        <time>2020-11-11T14:17:53Z</time>
      </trkpt>
      <trkpt lat="50.814058855175972" lon="4.665011242032051">
        <ele>34.920000000000002</ele>
        <time>2020-11-11T14:17:55Z</time>
      </trkpt>
      <trkpt lat="50.814110739156604" lon="4.66499749571085">
        <ele>34.890000000000001</ele>
        <time>2020-11-11T14:17:57Z</time>
      </trkpt>
      <trkpt lat="50.814135298132896" lon="4.664990874007344">
        <ele>34.909999999999997</ele>
        <time>2020-11-11T14:17:58Z</time>
      </trkpt>
      <trkpt lat="50.81415256485343" lon="4.664987605065107">
        <ele>34.899999999999999</ele>
        <time>2020-11-11T14:17:59Z</time>
      </trkpt>
      <trkpt lat="50.814169999212027" lon="4.664986180141568">
        <ele>34.880000000000003</ele>
        <time>2020-11-11T14:18:00Z</time>
      </trkpt>
      <trkpt lat="50.814256919547915" lon="4.664995232596993">
        <ele>34.789999999999999</ele>
        <time>2020-11-11T14:18:10Z</time>
      </trkpt>
      <trkpt lat="50.814442159608006" lon="4.664987856522203">
        <ele>35.43</ele>
        <time>2020-11-11T14:18:25Z</time>
      </trkpt>
      <trkpt lat="50.814797803759575" lon="4.66492080129683">
        <ele>36.219999999999999</ele>
        <time>2020-11-11T14:18:45Z</time>
      </trkpt>
      <trkpt lat="50.815074574202299" lon="4.664779482409358">
        <ele>36.229999999999997</ele>
        <time>2020-11-11T14:19:01Z</time>
      </trkpt>
      <trkpt lat="50.815327959135175" lon="4.66470873914659">
        <ele>36.270000000000003</ele>
        <time>2020-11-11T14:19:15Z</time>
      </trkpt>
      <trkpt lat="50.815616380423307" lon="4.664676804095507">
        <ele>37.170000000000002</ele>
        <time>2020-11-11T14:19:38Z</time>
      </trkpt>
      <trkpt lat="50.816038744524121" lon="4.664595751091838">
        <ele>37.270000000000003</ele>
        <time>2020-11-11T14:20:01Z</time>
      </trkpt>
      <trkpt lat="50.81636262126267" lon="4.66452257707715">
        <ele>37.409999999999997</ele>
        <time>2020-11-11T14:20:23Z</time>
      </trkpt>
      <trkpt lat="50.816608127206564" lon="4.664489133283496">
        <ele>37.520000000000003</ele>
        <time>2020-11-11T14:20:36Z</time>
      </trkpt>
      <trkpt lat="50.816752463579178" lon="4.664459964260459">
        <ele>37.640000000000001</ele>
        <time>2020-11-11T14:20:49Z</time>
      </trkpt>
      <trkpt lat="50.816890010610223" lon="4.664433896541596">
        <ele>37.700000000000003</ele>
        <time>2020-11-11T14:20:57Z</time>
      </trkpt>
      <trkpt lat="50.816902499645948" lon="4.664431046694517">
        <ele>37.719999999999999</ele>
        <time>2020-11-11T14:20:58Z</time>
      </trkpt>
      <trkpt lat="50.817165607586503" lon="4.664397183805704">
        <ele>37.859999999999999</ele>
        <time>2020-11-11T14:21:14Z</time>
      </trkpt>
      <trkpt lat="50.817408431321383" lon="4.66435058042407">
        <ele>38.07</ele>
        <time>2020-11-11T14:21:37Z</time>
      </trkpt>
      <trkpt lat="50.817659804597497" lon="4.66433054767549">
        <ele>38.280000000000001</ele>
        <time>2020-11-11T14:21:56Z</time>
      </trkpt>
      <trkpt lat="50.817910004407167" lon="4.66429190710187">
        <ele>38.450000000000003</ele>
        <time>2020-11-11T14:22:19Z</time>
      </trkpt>
      <trkpt lat="50.818177051842213" lon="4.664231641218066">
        <ele>38.57</ele>
        <time>2020-11-11T14:22:41Z</time>
      </trkpt>
      <trkpt lat="50.818493133410811" lon="4.664213536307216">
        <ele>36.32</ele>
        <time>2020-11-11T14:23:03Z</time>
      </trkpt>
      <trkpt lat="50.818778285756707" lon="4.664167352020741">
        <ele>35.640000000000001</ele>
        <time>2020-11-11T14:23:24Z</time>
      </trkpt>
      <trkpt lat="50.819109538570046" lon="4.664092501625419">
        <ele>34.920000000000002</ele>
        <time>2020-11-11T14:23:45Z</time>
      </trkpt>
      <trkpt lat="50.819466020911932" lon="4.664032151922584">
        <ele>34.140000000000001</ele>
        <time>2020-11-11T14:24:07Z</time>
      </trkpt>
      <trkpt lat="50.81978352740407" lon="4.663980603218079">
        <ele>33.420000000000002</ele>
        <time>2020-11-11T14:24:28Z</time>
      </trkpt>
      <trkpt lat="50.819967174902558" lon="4.663930982351303">
        <ele>32.659999999999997</ele>
        <time>2020-11-11T14:24:39Z</time>
      </trkpt>
      <trkpt lat="50.820054598152637" lon="4.663918660953641">
        <ele>31.829999999999998</ele>
        <time>2020-11-11T14:24:47Z</time>
      </trkpt>
      <trkpt lat="50.820226678624749" lon="4.663880607113242">
        <ele>30.23</ele>
        <time>2020-11-11T14:25:00Z</time>
      </trkpt>
      <trkpt lat="50.820583747699857" lon="4.663840373978019">
        <ele>27.620000000000001</ele>
        <time>2020-11-11T14:25:23Z</time>
      </trkpt>
      <trkpt lat="50.820839144289494" lon="4.663789328187704">
        <ele>23.879999999999999</ele>
        <time>2020-11-11T14:25:40Z</time>
      </trkpt>
      <trkpt lat="50.821219850331545" lon="4.663744401186705">
        <ele>21.460000000000001</ele>
        <time>2020-11-11T14:26:03Z</time>
      </trkpt>
      <trkpt lat="50.821451107040048" lon="4.663718584924936">
        <ele>19.920000000000002</ele>
        <time>2020-11-11T14:26:18Z</time>
      </trkpt>
      <trkpt lat="50.821773139759898" lon="4.663535859435797">
        <ele>17.66</ele>
        <time>2020-11-11T14:26:39Z</time>
      </trkpt>
      <trkpt lat="50.822049155831337" lon="4.663544408977032">
        <ele>15.51</ele>
        <time>2020-11-11T14:27:01Z</time>
      </trkpt>
      <trkpt lat="50.82236154936254" lon="4.663518257439137">
        <ele>13.34</ele>
        <time>2020-11-11T14:27:22Z</time>
      </trkpt>
      <trkpt lat="50.822552824392915" lon="4.663486406207085">
        <ele>12.75</ele>
        <time>2020-11-11T14:27:39Z</time>
      </trkpt>
      <trkpt lat="50.822810651734471" lon="4.663451286032796">
        <ele>11.380000000000001</ele>
        <time>2020-11-11T14:27:55Z</time>
      </trkpt>
      <trkpt lat="50.823204098269343" lon="4.663399318233132">
        <ele>10.82</ele>
        <time>2020-11-11T14:28:11Z</time>
      </trkpt>
      <trkpt lat="50.823401408270001" lon="4.663364114239812">
        <ele>11</ele>
        <time>2020-11-11T14:28:24Z</time>
      </trkpt>
      <trkpt lat="50.823493106290698" lon="4.663322707638145">
        <ele>11.09</ele>
        <time>2020-11-11T14:28:30Z</time>
      </trkpt>
      <trkpt lat="50.82351079210639" lon="4.663312146440148">
        <ele>11.109999999999999</ele>
        <time>2020-11-11T14:28:31Z</time>
      </trkpt>
      <trkpt lat="50.823638867586851" lon="4.663318349048495">
        <ele>11.210000000000001</ele>
        <time>2020-11-11T14:28:41Z</time>
      </trkpt>
      <trkpt lat="50.823659403249621" lon="4.663319103419781">
        <ele>11.220000000000001</ele>
        <time>2020-11-11T14:28:42Z</time>
      </trkpt>
      <trkpt lat="50.82386652007699" lon="4.663280630484223">
        <ele>11.43</ele>
        <time>2020-11-11T14:28:58Z</time>
      </trkpt>
      <trkpt lat="50.823991661891341" lon="4.663266129791737">
        <ele>14.01</ele>
        <time>2020-11-11T14:29:09Z</time>
      </trkpt>
      <trkpt lat="50.824149325489998" lon="4.663251796737313">
        <ele>16.170000000000002</ele>
        <time>2020-11-11T14:29:20Z</time>
      </trkpt>
      <trkpt lat="50.824385527521372" lon="4.663243750110269">
        <ele>19.640000000000001</ele>
        <time>2020-11-11T14:29:31Z</time>
      </trkpt>
      <trkpt lat="50.824477979913354" lon="4.663246683776379">
        <ele>20.920000000000002</ele>
        <time>2020-11-11T14:29:35Z</time>
      </trkpt>
      <trkpt lat="50.824750140309334" lon="4.663221202790737">
        <ele>22.850000000000001</ele>
        <time>2020-11-11T14:29:43Z</time>
      </trkpt>
      <trkpt lat="50.825026910752058" lon="4.663184238597751">
        <ele>24.68</ele>
        <time>2020-11-11T14:29:52Z</time>
      </trkpt>
      <trkpt lat="50.825356068089604" lon="4.663138054311276">
        <ele>26.289999999999999</ele>
        <time>2020-11-11T14:30:02Z</time>
      </trkpt>
      <trkpt lat="50.825616410002112" lon="4.663044679909945">
        <ele>27.100000000000001</ele>
        <time>2020-11-11T14:30:15Z</time>
      </trkpt>
      <trkpt lat="50.825822688639164" lon="4.662993717938662">
        <ele>27.129999999999999</ele>
        <time>2020-11-11T14:30:24Z</time>
      </trkpt>
      <trkpt lat="50.825864095240831" lon="4.66297603212297">
        <ele>28.359999999999999</ele>
        <time>2020-11-11T14:30:27Z</time>
      </trkpt>
      <trkpt lat="50.826031900942326" lon="4.662987682968378">
        <ele>29.390000000000001</ele>
        <time>2020-11-11T14:30:38Z</time>
      </trkpt>
      <trkpt lat="50.826195264235139" lon="4.662977540865541">
        <ele>29.460000000000001</ele>
        <time>2020-11-11T14:30:49Z</time>
      </trkpt>
      <trkpt lat="50.825801147148013" lon="4.663584474474192">
        <ele>30.469999999999999</ele>
        <time>2020-11-11T14:31:06Z</time>
      </trkpt>
      <trkpt lat="50.826172130182385" lon="4.663968617096543">
        <ele>30.649999999999999</ele>
        <time>2020-11-11T14:31:19Z</time>
      </trkpt>
      <trkpt lat="50.826555769890547" lon="4.664554931223393">
        <ele>30.68</ele>
        <time>2020-11-11T14:31:21Z</time>
      </trkpt>
      <trkpt lat="50.827392032369971" lon="4.665050301700831">
        <ele>33.520000000000003</ele>
        <time>2020-11-11T14:31:43Z</time>
      </trkpt>
      <trkpt lat="50.828857189044356" lon="4.663958558812738">
        <ele>37</ele>
        <time>2020-11-11T14:32:02Z</time>
      </trkpt>
      <trkpt lat="50.829368568956852" lon="4.663086086511612">
        <ele>49.090000000000003</ele>
        <time>2020-11-11T14:34:53Z</time>
      </trkpt>
      <trkpt lat="50.829387428238988" lon="4.66315682977438">
        <ele>49.039999999999999</ele>
        <time>2020-11-11T14:35:27Z</time>
      </trkpt>
      <trkpt lat="50.830283788964152" lon="4.664115300402045">
        <ele>48.920000000000002</ele>
        <time>2020-11-11T14:36:46Z</time>
      </trkpt>
      <trkpt lat="50.830790055915713" lon="4.66442191042006">
        <ele>48.939999999999998</ele>
        <time>2020-11-11T14:37:09Z</time>
      </trkpt>
      <trkpt lat="50.830717217177153" lon="4.664257289841771">
        <ele>48.950000000000003</ele>
        <time>2020-11-11T14:37:23Z</time>
      </trkpt>
      <trkpt lat="50.830639097839594" lon="4.663992924615741">
        <ele>49.009999999999998</ele>
        <time>2020-11-11T14:37:39Z</time>
      </trkpt>
      <trkpt lat="50.830504316836596" lon="4.663343075662851">
        <ele>49.049999999999997</ele>
        <time>2020-11-11T14:38:05Z</time>
      </trkpt>
      <trkpt lat="50.83059836179018" lon="4.663178957998753">
        <ele>49.030000000000001</ele>
        <time>2020-11-11T14:38:19Z</time>
      </trkpt>
      <trkpt lat="50.830660639330745" lon="4.663070160895586">
        <ele>49.020000000000003</ele>
        <time>2020-11-11T14:38:24Z</time>
      </trkpt>
      <trkpt lat="50.831081746146083" lon="4.662642516195774">
        <ele>45.969999999999999</ele>
        <time>2020-11-11T14:38:58Z</time>
      </trkpt>
      <trkpt lat="50.83123748190701" lon="4.662548638880253">
        <ele>45.219999999999999</ele>
        <time>2020-11-11T14:39:08Z</time>
      </trkpt>
      <trkpt lat="50.831774342805147" lon="4.662041701376438">
        <ele>43.170000000000002</ele>
        <time>2020-11-11T14:39:52Z</time>
      </trkpt>
      <trkpt lat="50.832002582028508" lon="4.661802900955081">
        <ele>41.670000000000002</ele>
        <time>2020-11-11T14:40:11Z</time>
      </trkpt>
      <trkpt lat="50.832213303074241" lon="4.661535518243909">
        <ele>40.289999999999999</ele>
        <time>2020-11-11T14:40:27Z</time>
      </trkpt>
      <trkpt lat="50.832378091290593" lon="4.661436108872294">
        <ele>40.450000000000003</ele>
        <time>2020-11-11T14:40:40Z</time>
      </trkpt>
      <trkpt lat="50.832449672743678" lon="4.661425044760108">
        <ele>40.579999999999998</ele>
        <time>2020-11-11T14:40:51Z</time>
      </trkpt>
    </trkseg>
  </trk>

</gpx>